<?xml version='1.0' encoding='UTF-8'?><gpx version="1.1" creator="JPX - https://github.com/jenetics/jpx" xmlns="http://www.topografix.com/GPX/1/1"><trk><trkseg><trkpt lat="43.397492600335916" lon="12.970719074746986"><ele>344.00000000000006</ele><time>2026-04-19T07:25:37.03Z</time></trkpt><trkpt lat="43.39752992076209" lon="12.970646809192925"><ele>344.0</ele><time>2026-04-19T07:25:44.026Z</time></trkpt><trkpt lat="43.39748416051182" lon="12.97072019612733"><ele>344.0</ele><time>2026-04-19T07:25:50.017Z</time></trkpt><trkpt lat="43.39744379775424" lon="12.970651271835566"><ele>344.0</ele><time>2026-04-19T07:26:03.007Z</time></trkpt><trkpt lat="43.39739994827718" lon="12.970584828686459"><ele>344.0</ele><time>2026-04-19T07:26:13.003Z</time></trkpt><trkpt lat="43.397362042226206" lon="12.970515351404224"><ele>344.00000000000006</ele><time>2026-04-19T07:26:22.001Z</time></trkpt><trkpt lat="43.39730836489672" lon="12.970464342267688"><ele>344.0</ele><time>2026-04-19T07:27:15.997Z</time></trkpt><trkpt lat="43.397279801994934" lon="12.97055424560402"><ele>344.0</ele><time>2026-04-19T07:27:22.997Z</time></trkpt><trkpt lat="43.39726642528048" lon="12.970447864050389"><ele>344.0</ele><time>2026-04-19T07:27:36.997Z</time></trkpt><trkpt lat="43.39718510051025" lon="12.97049993474204"><ele>344.0</ele><time>2026-04-19T07:27:50.999Z</time></trkpt><trkpt lat="43.39719244619763" lon="12.970412802098965"><ele>344.0</ele><time>2026-04-19T07:28:10.999Z</time></trkpt><trkpt lat="43.39714119085017" lon="12.970357688534756"><ele>344.0</ele><time>2026-04-19T07:28:13.999Z</time></trkpt><trkpt lat="43.39708763197744" lon="12.97026080260218"><ele>344.0</ele><time>2026-04-19T07:28:15.999Z</time></trkpt><trkpt lat="43.39702532766489" lon="12.970338687345118"><ele>348.00000000000006</ele><time>2026-04-19T07:29:36.998Z</time></trkpt><trkpt lat="43.39700461600704" lon="12.970254472787314"><ele>352.0</ele><time>2026-04-19T07:29:39.998Z</time></trkpt><trkpt lat="43.39696371565574" lon="12.970320599958544"><ele>356.0</ele><time>2026-04-19T07:30:06Z</time></trkpt><trkpt lat="43.396950876243665" lon="12.970228562298379"><ele>360.0</ele><time>2026-04-19T07:30:24Z</time></trkpt><trkpt lat="43.39689756946748" lon="12.970305889581567"><ele>364.0</ele><time>2026-04-19T07:30:33.999Z</time></trkpt><trkpt lat="43.39686922439765" lon="12.970209540683923"><ele>368.00000000000006</ele><time>2026-04-19T07:30:36.999Z</time></trkpt><trkpt lat="43.396810071084865" lon="12.97017877757202"><ele>372.0</ele><time>2026-04-19T07:31:10.999Z</time></trkpt><trkpt lat="43.39680913692333" lon="12.970078822722133"><ele>372.0</ele><time>2026-04-19T07:31:31.998Z</time></trkpt><trkpt lat="43.39672413551326" lon="12.970076716160115"><ele>372.0</ele><time>2026-04-19T07:31:49.998Z</time></trkpt><trkpt lat="43.39673585979669" lon="12.969982090441475"><ele>372.0</ele><time>2026-04-19T07:32:01Z</time></trkpt><trkpt lat="43.39665786397276" lon="12.969924670299898"><ele>372.0</ele><time>2026-04-19T07:32:55.999Z</time></trkpt><trkpt lat="43.39670416790458" lon="12.969840063638213"><ele>372.0</ele><time>2026-04-19T07:33:05.999Z</time></trkpt><trkpt lat="43.39671314432838" lon="12.969714459888953"><ele>372.0</ele><time>2026-04-19T07:33:56.998Z</time></trkpt><trkpt lat="43.396763997585744" lon="12.969654777249326"><ele>377.5</ele><time>2026-04-19T07:34:32Z</time></trkpt><trkpt lat="43.3968232729105" lon="12.969624211708883"><ele>383.0</ele><time>2026-04-19T07:34:46.999Z</time></trkpt><trkpt lat="43.39674512671253" lon="12.969607022234857"><ele>388.5</ele><time>2026-04-19T07:34:54.999Z</time></trkpt><trkpt lat="43.39672343592081" lon="12.969520834254492"><ele>394.0</ele><time>2026-04-19T07:35:28.999Z</time></trkpt><trkpt lat="43.396722996752445" lon="12.969364426109529"><ele>399.5</ele><time>2026-04-19T07:35:37.999Z</time></trkpt><trkpt lat="43.396710696984634" lon="12.969456333163995"><ele>405.0</ele><time>2026-04-19T07:35:39.999Z</time></trkpt><trkpt lat="43.39666496768835" lon="12.969522978760923"><ele>404.99999999999994</ele><time>2026-04-19T07:35:53.998Z</time></trkpt><trkpt lat="43.396602209505204" lon="12.969511245381735"><ele>405.0</ele><time>2026-04-19T07:36:31Z</time></trkpt><trkpt lat="43.39652219491383" lon="12.969514969006063"><ele>405.0</ele><time>2026-04-19T07:36:49Z</time></trkpt><trkpt lat="43.396517984377574" lon="12.969417795922713"><ele>405.0</ele><time>2026-04-19T07:37:41.999Z</time></trkpt><trkpt lat="43.39650571232956" lon="12.969330281974077"><ele>405.0</ele><time>2026-04-19T07:37:52.998Z</time></trkpt><trkpt lat="43.396449517595656" lon="12.969372938354068"><ele>404.99999999999994</ele><time>2026-04-19T07:38:16.998Z</time></trkpt><trkpt lat="43.39638518092375" lon="12.969379653447746"><ele>405.0</ele><time>2026-04-19T07:38:29Z</time></trkpt><trkpt lat="43.396326068972236" lon="12.969347224531251"><ele>405.6</ele><time>2026-04-19T07:39:37.999Z</time></trkpt><trkpt lat="43.39634545936398" lon="12.969148455384646"><ele>406.2</ele><time>2026-04-19T07:40:25Z</time></trkpt><trkpt lat="43.396298789949334" lon="12.969230471924085"><ele>406.79999999999995</ele><time>2026-04-19T07:40:28Z</time></trkpt><trkpt lat="43.39623117105972" lon="12.9692199393732"><ele>407.4</ele><time>2026-04-19T07:40:40Z</time></trkpt><trkpt lat="43.39611300292773" lon="12.969244315409851"><ele>408.0</ele><time>2026-04-19T07:41:10.999Z</time></trkpt><trkpt lat="43.396035779215254" lon="12.969228737720575"><ele>416.7142857142857</ele><time>2026-04-19T07:41:40.999Z</time></trkpt><trkpt lat="43.39604202637648" lon="12.96912549330532"><ele>425.42857142857144</ele><time>2026-04-19T07:41:56.999Z</time></trkpt><trkpt lat="43.39597457086217" lon="12.96911056265943"><ele>434.1428571428571</ele><time>2026-04-19T07:42:09.998Z</time></trkpt><trkpt lat="43.395912420014945" lon="12.969138292967688"><ele>442.8571428571429</ele><time>2026-04-19T07:42:36Z</time></trkpt><trkpt lat="43.3958634834804" lon="12.969059655527692"><ele>451.57142857142856</ele><time>2026-04-19T07:42:59Z</time></trkpt><trkpt lat="43.39580306016987" lon="12.969093224628159"><ele>460.2857142857143</ele><time>2026-04-19T07:43:08.999Z</time></trkpt><trkpt lat="43.39573620759852" lon="12.96909326290519"><ele>469.0</ele><time>2026-04-19T07:45:01Z</time></trkpt><trkpt lat="43.39567203789313" lon="12.969081409576319"><ele>469.0</ele><time>2026-04-19T07:45:16Z</time></trkpt><trkpt lat="43.395605637046245" lon="12.96912261337702"><ele>469.0</ele><time>2026-04-19T07:45:28.999Z</time></trkpt><trkpt lat="43.39553137831121" lon="12.969096833720211"><ele>469.0</ele><time>2026-04-19T07:45:43.999Z</time></trkpt><trkpt lat="43.395500523762784" lon="12.969010695241463"><ele>469.0</ele><time>2026-04-19T07:46:21.999Z</time></trkpt><trkpt lat="43.39543254997395" lon="12.968996314821446"><ele>469.0</ele><time>2026-04-19T07:46:39.998Z</time></trkpt><trkpt lat="43.39536633712274" lon="12.96899068989636"><ele>469.0</ele><time>2026-04-19T07:47:15Z</time></trkpt><trkpt lat="43.39532433796809" lon="12.968917088663748"><ele>469.0</ele><time>2026-04-19T07:47:51.999Z</time></trkpt><trkpt lat="43.39523997252076" lon="12.968732332484594"><ele>469.1666666666667</ele><time>2026-04-19T07:49:43.999Z</time></trkpt><trkpt lat="43.395259398877236" lon="12.968636013566165"><ele>469.33333333333337</ele><time>2026-04-19T07:50:48.998Z</time></trkpt><trkpt lat="43.39530460371327" lon="12.968529426376666"><ele>469.5</ele><time>2026-04-19T07:51:06Z</time></trkpt><trkpt lat="43.39524156410845" lon="12.96853611208214"><ele>469.66666666666663</ele><time>2026-04-19T07:51:11Z</time></trkpt><trkpt lat="43.395143470175334" lon="12.968401071753574"><ele>469.8333333333333</ele><time>2026-04-19T07:52:36.999Z</time></trkpt><trkpt lat="43.39511631703958" lon="12.96831642731714"><ele>470.0</ele><time>2026-04-19T07:52:59.998Z</time></trkpt><trkpt lat="43.39504891570351" lon="12.968298963574172"><ele>477.66666666666663</ele><time>2026-04-19T07:53:16Z</time></trkpt><trkpt lat="43.395126278788716" lon="12.968227252493687"><ele>485.3333333333333</ele><time>2026-04-19T07:53:40Z</time></trkpt><trkpt lat="43.39506025078824" lon="12.968152281429449"><ele>493.0</ele><time>2026-04-19T07:53:49.999Z</time></trkpt><trkpt lat="43.395025408833874" lon="12.968064369030357"><ele>500.66666666666663</ele><time>2026-04-19T07:54:11.999Z</time></trkpt><trkpt lat="43.39497556819122" lon="12.967999380323288"><ele>508.3333333333333</ele><time>2026-04-19T07:54:24.999Z</time></trkpt><trkpt lat="43.394929465822536" lon="12.967934432431782"><ele>516.0</ele><time>2026-04-19T07:54:44.999Z</time></trkpt><trkpt lat="43.39492322950374" lon="12.967845881818898"><ele>516.0</ele><time>2026-04-19T07:55:02.998Z</time></trkpt><trkpt lat="43.39488731237699" lon="12.96772108731334"><ele>516.0</ele><time>2026-04-19T07:56:15.999Z</time></trkpt><trkpt lat="43.39494458027108" lon="12.967654749600129"><ele>516.0</ele><time>2026-04-19T07:56:28.999Z</time></trkpt><trkpt lat="43.3949888175712" lon="12.967588110144906"><ele>516.0</ele><time>2026-04-19T07:56:34.999Z</time></trkpt><trkpt lat="43.39510075572962" lon="12.967573785848714"><ele>516.0</ele><time>2026-04-19T07:57:17Z</time></trkpt><trkpt lat="43.3951361889845" lon="12.96749685821974"><ele>516.0</ele><time>2026-04-19T07:57:40Z</time></trkpt><trkpt lat="43.39515126159723" lon="12.967405045536397"><ele>521.5714285714286</ele><time>2026-04-19T07:58:16.999Z</time></trkpt><trkpt lat="43.39516462459286" lon="12.967319645712408"><ele>527.1428571428571</ele><time>2026-04-19T07:58:32.999Z</time></trkpt><trkpt lat="43.395167406317846" lon="12.967219513928011"><ele>532.7142857142858</ele><time>2026-04-19T07:59:09.999Z</time></trkpt><trkpt lat="43.39512084127674" lon="12.967155707645752"><ele>538.2857142857142</ele><time>2026-04-19T07:59:53Z</time></trkpt><trkpt lat="43.39505914097021" lon="12.967098955638845"><ele>543.8571428571429</ele><time>2026-04-19T08:00:24.999Z</time></trkpt><trkpt lat="43.3950360225753" lon="12.966987498724873"><ele>549.4285714285714</ele><time>2026-04-19T08:01:31Z</time></trkpt><trkpt lat="43.394971309395714" lon="12.966942692793467"><ele>555.0</ele><time>2026-04-19T08:01:56Z</time></trkpt><trkpt lat="43.394956851681975" lon="12.966845685258514"><ele>555.0</ele><time>2026-04-19T08:02:15Z</time></trkpt><trkpt lat="43.39485325458904" lon="12.966745681620734"><ele>555.0</ele><time>2026-04-19T08:04:01Z</time></trkpt><trkpt lat="43.394805139881164" lon="12.96665336976629"><ele>555.0</ele><time>2026-04-19T08:04:57.999Z</time></trkpt><trkpt lat="43.39478237083736" lon="12.96657161409453"><ele>555.0</ele><time>2026-04-19T08:07:16.999Z</time></trkpt><trkpt lat="43.394765672614554" lon="12.966474911307563"><ele>555.0</ele><time>2026-04-19T08:07:39.999Z</time></trkpt><trkpt lat="43.39471949624007" lon="12.966410154107763"><ele>555.0</ele><time>2026-04-19T08:09:28.999Z</time></trkpt><trkpt lat="43.394678681753106" lon="12.966339448781802"><ele>562.8571428571429</ele><time>2026-04-19T08:10:16Z</time></trkpt><trkpt lat="43.39462126872098" lon="12.966295783160447"><ele>570.7142857142858</ele><time>2026-04-19T08:10:48.999Z</time></trkpt><trkpt lat="43.39460042338837" lon="12.96620790516954"><ele>578.5714285714287</ele><time>2026-04-19T08:10:58.999Z</time></trkpt><trkpt lat="43.39457234489091" lon="12.966095917216"><ele>586.4285714285714</ele><time>2026-04-19T08:12:26Z</time></trkpt><trkpt lat="43.39450615040061" lon="12.966145282838133"><ele>594.2857142857142</ele><time>2026-04-19T08:14:30Z</time></trkpt><trkpt lat="43.39456194512273" lon="12.96623507576107"><ele>602.1428571428572</ele><time>2026-04-19T08:14:44.999Z</time></trkpt><trkpt lat="43.39455685331465" lon="12.966140084533118"><ele>610.0</ele><time>2026-04-19T08:15:32.999Z</time></trkpt><trkpt lat="43.39451057483257" lon="12.966256435090468"><ele>610.0</ele><time>2026-04-19T08:21:43Z</time></trkpt><trkpt lat="43.39457388090553" lon="12.966200337840691"><ele>610.0</ele><time>2026-04-19T08:22:04Z</time></trkpt><trkpt lat="43.39464637419105" lon="12.966202347218912"><ele>610.0</ele><time>2026-04-19T08:22:47.999Z</time></trkpt><trkpt lat="43.39471675374227" lon="12.966238959739329"><ele>610.0</ele><time>2026-04-19T08:22:55.999Z</time></trkpt><trkpt lat="43.394764116719195" lon="12.966180186063074"><ele>610.0</ele><time>2026-04-19T08:23:08.999Z</time></trkpt><trkpt lat="43.3948066852449" lon="12.966113982430995"><ele>610.0</ele><time>2026-04-19T08:23:21.999Z</time></trkpt><trkpt lat="43.394980700597685" lon="12.966105561285142"><ele>606.1666666666667</ele><time>2026-04-19T08:30:37Z</time></trkpt><trkpt lat="43.395062428377926" lon="12.966116108739381"><ele>602.3333333333334</ele><time>2026-04-19T08:31:04.999Z</time></trkpt><trkpt lat="43.395128334464516" lon="12.966126638889678"><ele>598.5</ele><time>2026-04-19T08:31:42.999Z</time></trkpt><trkpt lat="43.39520087811608" lon="12.966143611231724"><ele>594.6666666666666</ele><time>2026-04-19T08:31:53Z</time></trkpt><trkpt lat="43.39525466629435" lon="12.966056938953187"><ele>590.8333333333333</ele><time>2026-04-19T08:32:12Z</time></trkpt><trkpt lat="43.39526891374447" lon="12.965900306089459"><ele>587.0</ele><time>2026-04-19T08:34:09Z</time></trkpt><trkpt lat="43.395292830997946" lon="12.96581775977832"><ele>589.8333333333333</ele><time>2026-04-19T08:36:09Z</time></trkpt><trkpt lat="43.395369203960314" lon="12.965752598291013"><ele>592.6666666666666</ele><time>2026-04-19T08:36:31Z</time></trkpt><trkpt lat="43.39535042792937" lon="12.965652204904977"><ele>595.5</ele><time>2026-04-19T08:36:36Z</time></trkpt><trkpt lat="43.395438654068705" lon="12.965542997380334"><ele>598.3333333333334</ele><time>2026-04-19T08:37:02.999Z</time></trkpt><trkpt lat="43.395464813943086" lon="12.965448773554199"><ele>601.1666666666667</ele><time>2026-04-19T08:37:12.999Z</time></trkpt><trkpt lat="43.39550642630915" lon="12.965369016044034"><ele>604.0</ele><time>2026-04-19T08:37:56.999Z</time></trkpt><trkpt lat="43.39555770270798" lon="12.965291350781099"><ele>604.0</ele><time>2026-04-19T08:38:08Z</time></trkpt><trkpt lat="43.39562962579083" lon="12.965251520771295"><ele>604.0</ele><time>2026-04-19T08:39:46.999Z</time></trkpt><trkpt lat="43.39568997859184" lon="12.965204346933604"><ele>604.0</ele><time>2026-04-19T08:39:51.999Z</time></trkpt><trkpt lat="43.39573753914302" lon="12.965108444884462"><ele>604.0</ele><time>2026-04-19T08:40:03.999Z</time></trkpt><trkpt lat="43.39579341744359" lon="12.965039834762445"><ele>604.0</ele><time>2026-04-19T08:40:16Z</time></trkpt><trkpt lat="43.39584635507892" lon="12.964963548299618"><ele>604.0</ele><time>2026-04-19T08:43:23.999Z</time></trkpt><trkpt lat="43.39590330336628" lon="12.96491279677051"><ele>612.4285714285714</ele><time>2026-04-19T08:44:03.999Z</time></trkpt><trkpt lat="43.395946206150384" lon="12.964834902305657"><ele>620.8571428571429</ele><time>2026-04-19T08:44:13.999Z</time></trkpt><trkpt lat="43.395987881999126" lon="12.964752471896908"><ele>629.2857142857142</ele><time>2026-04-19T08:44:27Z</time></trkpt><trkpt lat="43.3960501810842" lon="12.964711089128885"><ele>637.7142857142858</ele><time>2026-04-19T08:44:35Z</time></trkpt><trkpt lat="43.396087566995845" lon="12.964637529958104"><ele>646.1428571428571</ele><time>2026-04-19T08:44:45Z</time></trkpt><trkpt lat="43.39612706520875" lon="12.964562320543937"><ele>654.5714285714286</ele><time>2026-04-19T08:45:03Z</time></trkpt><trkpt lat="43.39618848544991" lon="12.964521512946106"><ele>663.0</ele><time>2026-04-19T08:45:14Z</time></trkpt><trkpt lat="43.396199994806665" lon="12.964435773212646"><ele>662.9999999999999</ele><time>2026-04-19T08:45:22.999Z</time></trkpt><trkpt lat="43.396265291224616" lon="12.964412705755345"><ele>663.0</ele><time>2026-04-19T08:45:29.999Z</time></trkpt><trkpt lat="43.39632267652015" lon="12.964358753476223"><ele>663.0</ele><time>2026-04-19T08:45:40.999Z</time></trkpt><trkpt lat="43.39634218739292" lon="12.964275265642204"><ele>663.0</ele><time>2026-04-19T08:45:52.999Z</time></trkpt><trkpt lat="43.39640206805753" lon="12.964242469695767"><ele>663.0</ele><time>2026-04-19T08:45:59.999Z</time></trkpt><trkpt lat="43.39648233132786" lon="12.964230743787704"><ele>662.9999999999999</ele><time>2026-04-19T08:46:16.999Z</time></trkpt><trkpt lat="43.39650187378453" lon="12.964142841154823"><ele>663.0</ele><time>2026-04-19T08:46:36Z</time></trkpt><trkpt lat="43.396551557355835" lon="12.964086989907914"><ele>664.5714285714286</ele><time>2026-04-19T08:46:49Z</time></trkpt><trkpt lat="43.39662566422644" lon="12.964055457010074"><ele>666.1428571428571</ele><time>2026-04-19T08:47:02Z</time></trkpt><trkpt lat="43.39669968020853" lon="12.964050709590804"><ele>667.7142857142858</ele><time>2026-04-19T08:47:14Z</time></trkpt><trkpt lat="43.396751146657756" lon="12.963995552695375"><ele>669.2857142857142</ele><time>2026-04-19T08:47:29.999Z</time></trkpt><trkpt lat="43.396819516117205" lon="12.963993943366356"><ele>670.8571428571429</ele><time>2026-04-19T08:47:44.999Z</time></trkpt><trkpt lat="43.39682677948739" lon="12.963888162429065"><ele>672.4285714285714</ele><time>2026-04-19T08:47:57.999Z</time></trkpt><trkpt lat="43.396868657382" lon="12.963817477906836"><ele>674.0</ele><time>2026-04-19T08:48:08.999Z</time></trkpt><trkpt lat="43.39687968078661" lon="12.963722211838594"><ele>674.0000000000001</ele><time>2026-04-19T08:48:23.999Z</time></trkpt><trkpt lat="43.396872649983344" lon="12.963630399045837"><ele>674.0</ele><time>2026-04-19T08:48:31.999Z</time></trkpt><trkpt lat="43.39682943639498" lon="12.963550637107685"><ele>674.0</ele><time>2026-04-19T08:50:05.999Z</time></trkpt><trkpt lat="43.39676900893633" lon="12.963502681775765"><ele>674.0</ele><time>2026-04-19T08:50:14.999Z</time></trkpt><trkpt lat="43.396714219413425" lon="12.963459747088065"><ele>674.0</ele><time>2026-04-19T08:50:21.999Z</time></trkpt><trkpt lat="43.396717866917704" lon="12.963358680757787"><ele>674.0000000000001</ele><time>2026-04-19T08:50:29.999Z</time></trkpt><trkpt lat="43.39666561906686" lon="12.963295372528137"><ele>674.0</ele><time>2026-04-19T08:50:37.999Z</time></trkpt><trkpt lat="43.39665178689826" lon="12.963206525928184"><ele>679.0000000000001</ele><time>2026-04-19T08:50:53Z</time></trkpt><trkpt lat="43.39663874174617" lon="12.96311103509613"><ele>684.0</ele><time>2026-04-19T08:51:00Z</time></trkpt><trkpt lat="43.39663698216609" lon="12.963009457344322"><ele>689.0</ele><time>2026-04-19T08:51:12Z</time></trkpt><trkpt lat="43.39659582347012" lon="12.962930217766484"><ele>694.0</ele><time>2026-04-19T08:51:25Z</time></trkpt><trkpt lat="43.39656668493733" lon="12.962817038562616"><ele>699.0</ele><time>2026-04-19T08:51:49.999Z</time></trkpt><trkpt lat="43.39656569618335" lon="12.962715178004174"><ele>704.0000000000001</ele><time>2026-04-19T08:51:59.999Z</time></trkpt><trkpt lat="43.39649684457917" lon="12.962687363531805"><ele>709.0</ele><time>2026-04-19T08:52:14.999Z</time></trkpt><trkpt lat="43.396443380545385" lon="12.96261801433851"><ele>709.0000000000001</ele><time>2026-04-19T08:52:25.999Z</time></trkpt><trkpt lat="43.39638406131324" lon="12.962568232682644"><ele>709.0</ele><time>2026-04-19T08:52:42.999Z</time></trkpt><trkpt lat="43.396368508313124" lon="12.962454235523369"><ele>709.0</ele><time>2026-04-19T08:52:56Z</time></trkpt><trkpt lat="43.396360329640245" lon="12.962364552566388"><ele>709.0</ele><time>2026-04-19T08:53:08Z</time></trkpt><trkpt lat="43.396423107450715" lon="12.962340757018099"><ele>709.0</ele><time>2026-04-19T08:53:14Z</time></trkpt><trkpt lat="43.39647601780224" lon="12.96226881133511"><ele>709.0000000000001</ele><time>2026-04-19T08:53:21Z</time></trkpt><trkpt lat="43.3965416164622" lon="12.962247948014014"><ele>709.0</ele><time>2026-04-19T08:53:29Z</time></trkpt><trkpt lat="43.396619495868855" lon="12.962202439310769"><ele>711.0000000000001</ele><time>2026-04-19T08:53:36Z</time></trkpt><trkpt lat="43.396672238078196" lon="12.96215502145121"><ele>713.0</ele><time>2026-04-19T08:53:45.999Z</time></trkpt><trkpt lat="43.39672780565859" lon="12.962102332986174"><ele>715.0</ele><time>2026-04-19T08:53:52.999Z</time></trkpt><trkpt lat="43.396727505884485" lon="12.962012695834055"><ele>717.0</ele><time>2026-04-19T08:53:58.999Z</time></trkpt><trkpt lat="43.39665920717701" lon="12.961932386223829"><ele>719.0</ele><time>2026-04-19T08:54:07.999Z</time></trkpt><trkpt lat="43.396633344543396" lon="12.96184449454488"><ele>721.0000000000001</ele><time>2026-04-19T08:54:14.999Z</time></trkpt><trkpt lat="43.396662903154876" lon="12.961762167327766"><ele>723.0</ele><time>2026-04-19T08:54:19.999Z</time></trkpt><trkpt lat="43.396684356632655" lon="12.961673435986166"><ele>724.1428571428572</ele><time>2026-04-19T08:54:27.999Z</time></trkpt><trkpt lat="43.396711186920946" lon="12.961593040490701"><ele>725.2857142857143</ele><time>2026-04-19T08:54:31.999Z</time></trkpt><trkpt lat="43.39677432710257" lon="12.961601936958916"><ele>726.4285714285714</ele><time>2026-04-19T08:54:34.999Z</time></trkpt><trkpt lat="43.3967954035338" lon="12.96151199512812"><ele>727.5714285714287</ele><time>2026-04-19T08:54:40.999Z</time></trkpt><trkpt lat="43.39681898508218" lon="12.961411281826946"><ele>728.7142857142857</ele><time>2026-04-19T08:54:47.999Z</time></trkpt><trkpt lat="43.396859249367346" lon="12.961334531467354"><ele>729.8571428571429</ele><time>2026-04-19T08:54:55Z</time></trkpt><trkpt lat="43.39692259737016" lon="12.96131564972891"><ele>731.0</ele><time>2026-04-19T08:55:05Z</time></trkpt><trkpt lat="43.396941482874965" lon="12.961231897946183"><ele>731.0</ele><time>2026-04-19T08:55:14Z</time></trkpt><trkpt lat="43.39699983160115" lon="12.961179886392983"><ele>731.0</ele><time>2026-04-19T08:55:19Z</time></trkpt><trkpt lat="43.397012558206285" lon="12.961087467715512"><ele>731.0</ele><time>2026-04-19T08:55:29Z</time></trkpt><trkpt lat="43.39705619857731" lon="12.961014556876584"><ele>731.0</ele><time>2026-04-19T08:55:37Z</time></trkpt><trkpt lat="43.39709030713355" lon="12.960925985986965"><ele>731.0</ele><time>2026-04-19T08:55:45.999Z</time></trkpt><trkpt lat="43.39711412392144" lon="12.960832723016761"><ele>731.0</ele><time>2026-04-19T08:55:54.999Z</time></trkpt><trkpt lat="43.39716925112315" lon="12.960756883806118"><ele>731.0</ele><time>2026-04-19T08:56:02.999Z</time></trkpt><trkpt lat="43.397186583978275" lon="12.960669936235547"><ele>726.5714285714286</ele><time>2026-04-19T08:56:06.999Z</time></trkpt><trkpt lat="43.39720184297085" lon="12.960585292050409"><ele>722.1428571428571</ele><time>2026-04-19T08:56:13.999Z</time></trkpt><trkpt lat="43.397250052420894" lon="12.960527451390439"><ele>717.7142857142858</ele><time>2026-04-19T08:56:22.999Z</time></trkpt><trkpt lat="43.39727917900625" lon="12.960443859615784"><ele>713.2857142857142</ele><time>2026-04-19T08:56:29.999Z</time></trkpt><trkpt lat="43.39732166581532" lon="12.960361851030047"><ele>708.8571428571429</ele><time>2026-04-19T08:56:35.999Z</time></trkpt><trkpt lat="43.39737143334952" lon="12.960277833666314"><ele>704.4285714285714</ele><time>2026-04-19T08:56:43.999Z</time></trkpt><trkpt lat="43.39739989364219" lon="12.960198526208364"><ele>700.0</ele><time>2026-04-19T08:56:49.999Z</time></trkpt><trkpt lat="43.397449105441325" lon="12.96013296593711"><ele>700.0</ele><time>2026-04-19T08:57:00Z</time></trkpt></trkseg><trkseg><trkpt lat="43.39548004739383" lon="12.961574946531107"><ele>760.0</ele><time>2026-04-19T09:18:12Z</time></trkpt><trkpt lat="43.39542421074146" lon="12.961531231588815"><ele>760.0</ele><time>2026-04-19T09:18:21Z</time></trkpt><trkpt lat="43.3953772707406" lon="12.961468123328226"><ele>760.0</ele><time>2026-04-19T09:18:32.999Z</time></trkpt><trkpt lat="43.39532140432258" lon="12.961420645700235"><ele>760.0</ele><time>2026-04-19T09:18:45.999Z</time></trkpt><trkpt lat="43.395261523054316" lon="12.961390730352367"><ele>760.0</ele><time>2026-04-19T09:18:56.999Z</time></trkpt><trkpt lat="43.39519846511219" lon="12.961339496261221"><ele>760.0</ele><time>2026-04-19T09:19:04.999Z</time></trkpt><trkpt lat="43.39514360021986" lon="12.961296356549829"><ele>760.0</ele><time>2026-04-19T09:19:14.999Z</time></trkpt><trkpt lat="43.39508706750963" lon="12.961248637996135"><ele>760.0</ele><time>2026-04-19T09:19:22.999Z</time></trkpt><trkpt lat="43.395018981510745" lon="12.96122595033102"><ele>760.0</ele><time>2026-04-19T09:19:32.999Z</time></trkpt><trkpt lat="43.394973443899765" lon="12.96115588499852"><ele>760.0</ele><time>2026-04-19T09:19:41.998Z</time></trkpt><trkpt lat="43.39493571223868" lon="12.961076369835402"><ele>760.0</ele><time>2026-04-19T09:19:50.998Z</time></trkpt><trkpt lat="43.39489517836416" lon="12.960999559787524"><ele>760.0</ele><time>2026-04-19T09:19:59.999Z</time></trkpt><trkpt lat="43.39482891998192" lon="12.960954576842555"><ele>760.0</ele><time>2026-04-19T09:20:13Z</time></trkpt><trkpt lat="43.39477212335077" lon="12.960893848884615"><ele>760.0</ele><time>2026-04-19T09:20:24.999Z</time></trkpt><trkpt lat="43.39471155765173" lon="12.960845797707691"><ele>762.5714285714286</ele><time>2026-04-19T09:20:34.999Z</time></trkpt><trkpt lat="43.394641492063" lon="12.960824283517974"><ele>765.1428571428571</ele><time>2026-04-19T09:20:44.999Z</time></trkpt><trkpt lat="43.39457822965001" lon="12.960798279817684"><ele>767.7142857142858</ele><time>2026-04-19T09:20:51.999Z</time></trkpt><trkpt lat="43.39451265248529" lon="12.960767663321702"><ele>770.2857142857142</ele><time>2026-04-19T09:21:00.999Z</time></trkpt><trkpt lat="43.39444462224448" lon="12.960744318835928"><ele>772.8571428571428</ele><time>2026-04-19T09:21:08.999Z</time></trkpt><trkpt lat="43.39438382100594" lon="12.960721217054424"><ele>775.4285714285714</ele><time>2026-04-19T09:21:16.999Z</time></trkpt><trkpt lat="43.3943280213045" lon="12.960674240937664"><ele>778.0</ele><time>2026-04-19T09:21:25.999Z</time></trkpt><trkpt lat="43.39427037451243" lon="12.960618283283447"><ele>778.0</ele><time>2026-04-19T09:21:35.999Z</time></trkpt><trkpt lat="43.39421499560514" lon="12.960564650978888"><ele>778.0</ele><time>2026-04-19T09:21:46.999Z</time></trkpt><trkpt lat="43.39415924656583" lon="12.960515587134207"><ele>778.0</ele><time>2026-04-19T09:21:54.998Z</time></trkpt><trkpt lat="43.39410381770124" lon="12.960459313502927"><ele>778.0</ele><time>2026-04-19T09:22:02.999Z</time></trkpt><trkpt lat="43.39405875523095" lon="12.960382326867398"><ele>778.0</ele><time>2026-04-19T09:22:13.999Z</time></trkpt><trkpt lat="43.39400809910698" lon="12.960321828423497"><ele>778.0</ele><time>2026-04-19T09:22:20.999Z</time></trkpt><trkpt lat="43.39396636681615" lon="12.960238437540129"><ele>778.0</ele><time>2026-04-19T09:22:29.999Z</time></trkpt><trkpt lat="43.39392591268488" lon="12.960167688271353"><ele>778.0</ele><time>2026-04-19T09:22:37.999Z</time></trkpt><trkpt lat="43.39389347299163" lon="12.960084169874282"><ele>778.0</ele><time>2026-04-19T09:22:44.999Z</time></trkpt><trkpt lat="43.39388057131108" lon="12.959986178353736"><ele>778.0</ele><time>2026-04-19T09:22:51.999Z</time></trkpt><trkpt lat="43.393856233230565" lon="12.95989946654608"><ele>778.0</ele><time>2026-04-19T09:22:57.999Z</time></trkpt><trkpt lat="43.393830320492775" lon="12.959815967546314"><ele>778.0</ele><time>2026-04-19T09:23:03.999Z</time></trkpt><trkpt lat="43.39380371774782" lon="12.959734915684335"><ele>778.0</ele><time>2026-04-19T09:23:10.999Z</time></trkpt><trkpt lat="43.393774504257024" lon="12.959651038695108"><ele>778.0</ele><time>2026-04-19T09:23:17.999Z</time></trkpt><trkpt lat="43.393744532154074" lon="12.959571116378083"><ele>780.1428571428572</ele><time>2026-04-19T09:23:24.999Z</time></trkpt><trkpt lat="43.39374457549232" lon="12.959472447502046"><ele>782.2857142857142</ele><time>2026-04-19T09:23:36.999Z</time></trkpt><trkpt lat="43.39367885522574" lon="12.959517245330655"><ele>784.4285714285714</ele><time>2026-04-19T09:24:54.999Z</time></trkpt><trkpt lat="43.393636843751906" lon="12.959586007346266"><ele>786.5714285714287</ele><time>2026-04-19T09:25:03.999Z</time></trkpt><trkpt lat="43.393584013578774" lon="12.95963372895509"><ele>788.7142857142858</ele><time>2026-04-19T09:25:09.999Z</time></trkpt><trkpt lat="43.39354506169474" lon="12.959707353275416"><ele>790.8571428571429</ele><time>2026-04-19T09:25:16.999Z</time></trkpt><trkpt lat="43.393470208794106" lon="12.959756030839714"><ele>793.0</ele><time>2026-04-19T09:25:24.999Z</time></trkpt><trkpt lat="43.39340346037574" lon="12.959747261611943"><ele>793.0000000000001</ele><time>2026-04-19T09:25:39.999Z</time></trkpt><trkpt lat="43.3933384012842" lon="12.959747706104672"><ele>793.0</ele><time>2026-04-19T09:25:53.999Z</time></trkpt><trkpt lat="43.39326411019847" lon="12.959774716135577"><ele>793.0</ele><time>2026-04-19T09:25:57.999Z</time></trkpt><trkpt lat="43.39319931323557" lon="12.95976481477585"><ele>793.0</ele><time>2026-04-19T09:26:23.999Z</time></trkpt><trkpt lat="43.39312939396822" lon="12.959749001319578"><ele>793.0</ele><time>2026-04-19T09:26:28.999Z</time></trkpt><trkpt lat="43.39308678691365" lon="12.959815374768562"><ele>793.0000000000001</ele><time>2026-04-19T09:26:45Z</time></trkpt><trkpt lat="43.393021073362284" lon="12.9598618678892"><ele>793.0</ele><time>2026-04-19T09:27:07.999Z</time></trkpt><trkpt lat="43.392954531442726" lon="12.959925290963765"><ele>797.4285714285714</ele><time>2026-04-19T09:27:10.999Z</time></trkpt><trkpt lat="43.39290092018219" lon="12.959982969212252"><ele>801.8571428571429</ele><time>2026-04-19T09:27:52.999Z</time></trkpt><trkpt lat="43.39283778995682" lon="12.959965377044874"><ele>806.2857142857142</ele><time>2026-04-19T09:28:09.999Z</time></trkpt><trkpt lat="43.3927743582139" lon="12.959975231183034"><ele>810.7142857142858</ele><time>2026-04-19T09:28:13.999Z</time></trkpt><trkpt lat="43.39271256374718" lon="12.95999664163445"><ele>815.1428571428571</ele><time>2026-04-19T09:28:54Z</time></trkpt><trkpt lat="43.392657952602356" lon="12.960053082294806"><ele>819.5714285714286</ele><time>2026-04-19T09:29:08Z</time></trkpt><trkpt lat="43.392596220870765" lon="12.960072570920083"><ele>824.0</ele><time>2026-04-19T09:29:23Z</time></trkpt><trkpt lat="43.392539207939706" lon="12.960118961753503"><ele>824.9999999999999</ele><time>2026-04-19T09:29:37.999Z</time></trkpt><trkpt lat="43.392491808397224" lon="12.960198577008684"><ele>826.0</ele><time>2026-04-19T09:29:45.999Z</time></trkpt><trkpt lat="43.39247797271021" lon="12.960113589437485"><ele>827.0</ele><time>2026-04-19T09:29:51.999Z</time></trkpt><trkpt lat="43.39241391841618" lon="12.960076906884401"><ele>828.0</ele><time>2026-04-19T09:30:13.999Z</time></trkpt><trkpt lat="43.3923475993991" lon="12.96009569219666"><ele>829.0</ele><time>2026-04-19T09:30:28Z</time></trkpt><trkpt lat="43.3922851017368" lon="12.960130784661757"><ele>829.9999999999999</ele><time>2026-04-19T09:30:40Z</time></trkpt><trkpt lat="43.3922115495015" lon="12.960163718088369"><ele>831.0</ele><time>2026-04-19T09:30:59Z</time></trkpt><trkpt lat="43.39213393131287" lon="12.960139032664062"><ele>834.7142857142857</ele><time>2026-04-19T09:31:04Z</time></trkpt><trkpt lat="43.39209785222504" lon="12.960222816543574"><ele>838.4285714285714</ele><time>2026-04-19T09:31:20Z</time></trkpt><trkpt lat="43.39203340336964" lon="12.96019070627454"><ele>842.1428571428571</ele><time>2026-04-19T09:31:49Z</time></trkpt><trkpt lat="43.39197380095408" lon="12.960137456780652"><ele>845.8571428571429</ele><time>2026-04-19T09:31:52Z</time></trkpt><trkpt lat="43.39196602433026" lon="12.960223647127386"><ele>849.5714285714286</ele><time>2026-04-19T09:32:13Z</time></trkpt><trkpt lat="43.39189246189938" lon="12.960224684665455"><ele>853.2857142857142</ele><time>2026-04-19T09:32:38Z</time></trkpt><trkpt lat="43.39182641014672" lon="12.960252135682492"><ele>857.0</ele><time>2026-04-19T09:32:45Z</time></trkpt><trkpt lat="43.3917624688982" lon="12.960232544381643"><ele>857.0</ele><time>2026-04-19T09:33:54Z</time></trkpt><trkpt lat="43.39169844558612" lon="12.960225135437662"><ele>857.0</ele><time>2026-04-19T09:34:06Z</time></trkpt><trkpt lat="43.39162185807603" lon="12.960177791713397"><ele>857.0</ele><time>2026-04-19T09:34:26.999Z</time></trkpt><trkpt lat="43.391553422474104" lon="12.960153946419432"><ele>857.0</ele><time>2026-04-19T09:34:42Z</time></trkpt><trkpt lat="43.39148259547047" lon="12.960142766116412"><ele>857.0</ele><time>2026-04-19T09:34:57Z</time></trkpt><trkpt lat="43.39141704969095" lon="12.960146139264733"><ele>857.0</ele><time>2026-04-19T09:35:06Z</time></trkpt><trkpt lat="43.39135344044545" lon="12.960165319257637"><ele>857.0</ele><time>2026-04-19T09:35:28Z</time></trkpt><trkpt lat="43.39129001917484" lon="12.960157630575763"><ele>860.8571428571429</ele><time>2026-04-19T09:35:43Z</time></trkpt><trkpt lat="43.39123174259485" lon="12.960205753098352"><ele>864.7142857142857</ele><time>2026-04-19T09:36:00Z</time></trkpt><trkpt lat="43.391175268624934" lon="12.960165529087684"><ele>868.5714285714287</ele><time>2026-04-19T09:36:10.999Z</time></trkpt><trkpt lat="43.39111291904052" lon="12.96014987312148"><ele>872.4285714285714</ele><time>2026-04-19T09:36:46Z</time></trkpt><trkpt lat="43.3910761087923" lon="12.960222329409186"><ele>876.2857142857143</ele><time>2026-04-19T09:36:54Z</time></trkpt><trkpt lat="43.39102403350067" lon="12.960156577243259"><ele>880.1428571428572</ele><time>2026-04-19T09:37:07Z</time></trkpt><trkpt lat="43.39096542114925" lon="12.96020822330055"><ele>884.0</ele><time>2026-04-19T09:37:18Z</time></trkpt><trkpt lat="43.39088497221587" lon="12.960170539831948"><ele>884.0000000000001</ele><time>2026-04-19T09:37:51Z</time></trkpt><trkpt lat="43.390820418122566" lon="12.960167198609382"><ele>884.0</ele><time>2026-04-19T09:38:43Z</time></trkpt><trkpt lat="43.39076759921539" lon="12.960216254362269"><ele>884.0</ele><time>2026-04-19T09:38:55Z</time></trkpt><trkpt lat="43.39071046374571" lon="12.960167902570825"><ele>884.0</ele><time>2026-04-19T09:39:10Z</time></trkpt><trkpt lat="43.39065449166109" lon="12.96011439800962"><ele>884.0</ele><time>2026-04-19T09:39:19Z</time></trkpt><trkpt lat="43.39059247164723" lon="12.960147354261773"><ele>884.0000000000001</ele><time>2026-04-19T09:39:36Z</time></trkpt><trkpt lat="43.390530880753026" lon="12.96011985888078"><ele>884.0</ele><time>2026-04-19T09:39:50Z</time></trkpt><trkpt lat="43.39048030872166" lon="12.960054176421746"><ele>885.7142857142858</ele><time>2026-04-19T09:40:19Z</time></trkpt><trkpt lat="43.39042974882957" lon="12.960113020826501"><ele>887.4285714285714</ele><time>2026-04-19T09:41:04Z</time></trkpt><trkpt lat="43.39035618265873" lon="12.960135387579022"><ele>889.1428571428571</ele><time>2026-04-19T09:41:24Z</time></trkpt><trkpt lat="43.39029338245559" lon="12.960146240506987"><ele>890.8571428571429</ele><time>2026-04-19T09:41:46Z</time></trkpt><trkpt lat="43.39022257478358" lon="12.960132203364395"><ele>892.5714285714286</ele><time>2026-04-19T09:42:02Z</time></trkpt><trkpt lat="43.390153053332824" lon="12.960112129434947"><ele>894.2857142857143</ele><time>2026-04-19T09:42:10Z</time></trkpt><trkpt lat="43.39009069226611" lon="12.960097406366222"><ele>896.0</ele><time>2026-04-19T09:42:42Z</time></trkpt><trkpt lat="43.390025649200176" lon="12.960063812161433"><ele>896.0</ele><time>2026-04-19T09:42:55Z</time></trkpt><trkpt lat="43.38997041033863" lon="12.960016645527359"><ele>904.0</ele><time>2026-04-19T09:43:06Z</time></trkpt><trkpt lat="43.38990649107539" lon="12.95998749863578"><ele>904.0</ele><time>2026-04-19T09:43:17Z</time></trkpt><trkpt lat="43.38984409186492" lon="12.959966959675155"><ele>904.0</ele><time>2026-04-19T09:43:28Z</time></trkpt><trkpt lat="43.38977906189478" lon="12.959927349489114"><ele>904.0</ele><time>2026-04-19T09:43:44Z</time></trkpt></trkseg><trkseg><trkpt lat="43.38968339739243" lon="12.95999597258062"><ele>904.0</ele><time>2026-04-19T10:09:19.999Z</time></trkpt><trkpt lat="43.38974625641887" lon="12.959916620055505"><ele>904.0</ele><time>2026-04-19T10:10:36.999Z</time></trkpt><trkpt lat="43.389714045083856" lon="12.960014310699501"><ele>904.0</ele><time>2026-04-19T10:12:00Z</time></trkpt><trkpt lat="43.38964733271925" lon="12.959989486307716"><ele>904.0</ele><time>2026-04-19T10:12:41.999Z</time></trkpt><trkpt lat="43.389571302404015" lon="12.959989461194946"><ele>904.0</ele><time>2026-04-19T10:12:54.999Z</time></trkpt><trkpt lat="43.38950311621146" lon="12.96000691612665"><ele>904.0</ele><time>2026-04-19T10:13:01.999Z</time></trkpt><trkpt lat="43.389434016981056" lon="12.960007495510501"><ele>904.0</ele><time>2026-04-19T10:13:08.999Z</time></trkpt><trkpt lat="43.38936334580736" lon="12.96000802203861"><ele>903.4285714285714</ele><time>2026-04-19T10:13:17.999Z</time></trkpt><trkpt lat="43.389290929241284" lon="12.960003210405478"><ele>902.8571428571429</ele><time>2026-04-19T10:13:25.999Z</time></trkpt><trkpt lat="43.389226761226624" lon="12.959993885975987"><ele>902.2857142857143</ele><time>2026-04-19T10:13:31.999Z</time></trkpt><trkpt lat="43.38916441827688" lon="12.960019080873844"><ele>901.7142857142858</ele><time>2026-04-19T10:13:39.999Z</time></trkpt><trkpt lat="43.3890985032315" lon="12.960029519308133"><ele>901.1428571428571</ele><time>2026-04-19T10:13:44.999Z</time></trkpt><trkpt lat="43.38902697502083" lon="12.960024069491848"><ele>900.5714285714287</ele><time>2026-04-19T10:13:53.998Z</time></trkpt><trkpt lat="43.38895846025344" lon="12.960027200222203"><ele>900.0000000000001</ele><time>2026-04-19T10:14:04Z</time></trkpt><trkpt lat="43.38888438558251" lon="12.960010215745124"><ele>896.857142857143</ele><time>2026-04-19T10:14:12Z</time></trkpt><trkpt lat="43.38881295462072" lon="12.959994987415522"><ele>893.7142857142858</ele><time>2026-04-19T10:14:20Z</time></trkpt><trkpt lat="43.38874570825218" lon="12.959995794956766"><ele>890.5714285714287</ele><time>2026-04-19T10:14:26Z</time></trkpt><trkpt lat="43.388678066009106" lon="12.95999423126965"><ele>887.4285714285716</ele><time>2026-04-19T10:14:34Z</time></trkpt><trkpt lat="43.38860811314111" lon="12.959987435990925"><ele>884.2857142857142</ele><time>2026-04-19T10:14:41Z</time></trkpt><trkpt lat="43.38853611618914" lon="12.960004459646262"><ele>881.1428571428571</ele><time>2026-04-19T10:14:46.999Z</time></trkpt><trkpt lat="43.38846326310241" lon="12.960003448926065"><ele>878.0</ele><time>2026-04-19T10:14:54.999Z</time></trkpt><trkpt lat="43.3883921582127" lon="12.959999596096733"><ele>878.0</ele><time>2026-04-19T10:15:01.999Z</time></trkpt><trkpt lat="43.38832344259851" lon="12.959983311485914"><ele>878.0</ele><time>2026-04-19T10:15:06.999Z</time></trkpt><trkpt lat="43.38825430232728" lon="12.95997960806595"><ele>878.0</ele><time>2026-04-19T10:15:13.999Z</time></trkpt><trkpt lat="43.38818949934484" lon="12.959978600312615"><ele>878.0</ele><time>2026-04-19T10:15:19.999Z</time></trkpt><trkpt lat="43.388109325146424" lon="12.959976926123295"><ele>878.0</ele><time>2026-04-19T10:15:27.999Z</time></trkpt><trkpt lat="43.388042927504486" lon="12.959964863337529"><ele>878.0</ele><time>2026-04-19T10:15:33.999Z</time></trkpt><trkpt lat="43.387979865485256" lon="12.959961723452908"><ele>878.0</ele><time>2026-04-19T10:15:39.999Z</time></trkpt><trkpt lat="43.3879072478135" lon="12.959963998417518"><ele>875.7142857142857</ele><time>2026-04-19T10:15:44.999Z</time></trkpt><trkpt lat="43.38784346068909" lon="12.959967695281797"><ele>873.4285714285713</ele><time>2026-04-19T10:15:49.999Z</time></trkpt><trkpt lat="43.387763506118674" lon="12.959957488479622"><ele>871.1428571428571</ele><time>2026-04-19T10:15:56.998Z</time></trkpt><trkpt lat="43.38769817733377" lon="12.959947746843998"><ele>868.8571428571429</ele><time>2026-04-19T10:16:04.998Z</time></trkpt><trkpt lat="43.38763010788663" lon="12.959940483735112"><ele>866.5714285714286</ele><time>2026-04-19T10:16:11Z</time></trkpt><trkpt lat="43.38754897575703" lon="12.959934603348245"><ele>864.2857142857143</ele><time>2026-04-19T10:16:18Z</time></trkpt><trkpt lat="43.38748331958651" lon="12.959929189892643"><ele>862.0</ele><time>2026-04-19T10:16:23Z</time></trkpt><trkpt lat="43.38740668025541" lon="12.959934986483269"><ele>862.0</ele><time>2026-04-19T10:16:29Z</time></trkpt><trkpt lat="43.387336114706294" lon="12.959931302559543"><ele>862.0</ele><time>2026-04-19T10:16:35Z</time></trkpt><trkpt lat="43.387270809006104" lon="12.959938656594163"><ele>862.0</ele><time>2026-04-19T10:16:41Z</time></trkpt><trkpt lat="43.38719975660181" lon="12.95995322683001"><ele>862.0</ele><time>2026-04-19T10:16:46.999Z</time></trkpt><trkpt lat="43.38713414868544" lon="12.959940034893494"><ele>862.0</ele><time>2026-04-19T10:16:52.999Z</time></trkpt><trkpt lat="43.38706952205801" lon="12.959942786679006"><ele>862.0</ele><time>2026-04-19T10:16:58.999Z</time></trkpt><trkpt lat="43.387001291494116" lon="12.959957103491798"><ele>862.0</ele><time>2026-04-19T10:17:04.999Z</time></trkpt><trkpt lat="43.38693801138876" lon="12.959976304201069"><ele>859.5714285714286</ele><time>2026-04-19T10:17:10.999Z</time></trkpt><trkpt lat="43.38686579244367" lon="12.959987601244093"><ele>857.1428571428571</ele><time>2026-04-19T10:17:16.999Z</time></trkpt><trkpt lat="43.386797686031706" lon="12.959961077242475"><ele>854.7142857142857</ele><time>2026-04-19T10:17:23.999Z</time></trkpt><trkpt lat="43.3867352050319" lon="12.95994461873033"><ele>852.2857142857142</ele><time>2026-04-19T10:17:28.999Z</time></trkpt><trkpt lat="43.38667244144956" lon="12.959916530673866"><ele>849.8571428571429</ele><time>2026-04-19T10:17:33.999Z</time></trkpt><trkpt lat="43.38660964043936" lon="12.959892455570538"><ele>847.4285714285713</ele><time>2026-04-19T10:17:39.999Z</time></trkpt><trkpt lat="43.38653987663918" lon="12.959925515548278"><ele>845.0</ele><time>2026-04-19T10:17:47.999Z</time></trkpt><trkpt lat="43.38647616108901" lon="12.959906135295554"><ele>844.9999999999999</ele><time>2026-04-19T10:17:52.999Z</time></trkpt><trkpt lat="43.3864158632202" lon="12.9598652968428"><ele>845.0</ele><time>2026-04-19T10:17:59.998Z</time></trkpt><trkpt lat="43.38635275636473" lon="12.959876692022066"><ele>845.0</ele><time>2026-04-19T10:18:06.998Z</time></trkpt><trkpt lat="43.38629029079192" lon="12.959890540704569"><ele>845.0</ele><time>2026-04-19T10:18:17Z</time></trkpt><trkpt lat="43.386224614721584" lon="12.959893659684793"><ele>845.0</ele><time>2026-04-19T10:18:23Z</time></trkpt><trkpt lat="43.386153553561904" lon="12.959867509576316"><ele>844.9999999999999</ele><time>2026-04-19T10:18:31Z</time></trkpt><trkpt lat="43.3860818468029" lon="12.959861736630177"><ele>845.0</ele><time>2026-04-19T10:18:38Z</time></trkpt><trkpt lat="43.386021605048505" lon="12.959887439867488"><ele>842.8571428571428</ele><time>2026-04-19T10:18:44Z</time></trkpt><trkpt lat="43.38595799140666" lon="12.959886507094174"><ele>840.7142857142857</ele><time>2026-04-19T10:18:51Z</time></trkpt><trkpt lat="43.385894979699735" lon="12.959906957019975"><ele>838.5714285714286</ele><time>2026-04-19T10:18:56.999Z</time></trkpt><trkpt lat="43.38582915658886" lon="12.959923934243328"><ele>836.4285714285713</ele><time>2026-04-19T10:19:02.999Z</time></trkpt><trkpt lat="43.38575553325505" lon="12.959914951813676"><ele>834.2857142857143</ele><time>2026-04-19T10:19:08.999Z</time></trkpt><trkpt lat="43.38568604094744" lon="12.959910420198023"><ele>832.1428571428571</ele><time>2026-04-19T10:19:15.999Z</time></trkpt><trkpt lat="43.385619939873976" lon="12.959913389125573"><ele>830.0</ele><time>2026-04-19T10:19:21.999Z</time></trkpt><trkpt lat="43.38555192862292" lon="12.959918106400018"><ele>829.0</ele><time>2026-04-19T10:19:27.999Z</time></trkpt><trkpt lat="43.385487688095296" lon="12.959908634002145"><ele>828.0</ele><time>2026-04-19T10:19:31.999Z</time></trkpt><trkpt lat="43.38541892906988" lon="12.95991644394338"><ele>827.0</ele><time>2026-04-19T10:19:39.999Z</time></trkpt><trkpt lat="43.38537538389968" lon="12.959998192724628"><ele>826.0</ele><time>2026-04-19T10:19:46.999Z</time></trkpt><trkpt lat="43.38531658589258" lon="12.960043167485884"><ele>825.0</ele><time>2026-04-19T10:19:53.999Z</time></trkpt><trkpt lat="43.385248759944034" lon="12.960079247817106"><ele>824.0</ele><time>2026-04-19T10:19:59.999Z</time></trkpt><trkpt lat="43.38521555600234" lon="12.960154538809565"><ele>823.0</ele><time>2026-04-19T10:20:04.998Z</time></trkpt><trkpt lat="43.385182957304636" lon="12.96024175777525"><ele>823.0</ele><time>2026-04-19T10:20:10.998Z</time></trkpt><trkpt lat="43.385145691418764" lon="12.960328908740193"><ele>823.0</ele><time>2026-04-19T10:20:15.998Z</time></trkpt><trkpt lat="43.3850949646955" lon="12.960409229502966"><ele>823.0</ele><time>2026-04-19T10:20:23Z</time></trkpt><trkpt lat="43.38504533077925" lon="12.96046274254071"><ele>823.0</ele><time>2026-04-19T10:20:30Z</time></trkpt><trkpt lat="43.385013292574826" lon="12.960537700931276"><ele>823.0</ele><time>2026-04-19T10:20:35Z</time></trkpt><trkpt lat="43.384957632761136" lon="12.960611678469245"><ele>823.0</ele><time>2026-04-19T10:20:43Z</time></trkpt><trkpt lat="43.384919835988526" lon="12.960698717773171"><ele>823.0</ele><time>2026-04-19T10:20:49Z</time></trkpt><trkpt lat="43.38488479030078" lon="12.96077339935333"><ele>823.0</ele><time>2026-04-19T10:20:56Z</time></trkpt><trkpt lat="43.38485042082113" lon="12.96086444864148"><ele>823.0</ele><time>2026-04-19T10:21:02.999Z</time></trkpt><trkpt lat="43.38482412008495" lon="12.960950901210087"><ele>823.0</ele><time>2026-04-19T10:21:09.999Z</time></trkpt><trkpt lat="43.384760966387006" lon="12.961007026678763"><ele>823.0</ele><time>2026-04-19T10:21:17.999Z</time></trkpt><trkpt lat="43.38469032757292" lon="12.961037766674226"><ele>823.0</ele><time>2026-04-19T10:21:24.999Z</time></trkpt><trkpt lat="43.38462135340501" lon="12.961061409813704"><ele>823.0</ele><time>2026-04-19T10:21:31.999Z</time></trkpt><trkpt lat="43.38456040840973" lon="12.961094801560684"><ele>823.0</ele><time>2026-04-19T10:21:38.999Z</time></trkpt><trkpt lat="43.384488214194015" lon="12.961116334190686"><ele>822.7142857142858</ele><time>2026-04-19T10:21:45.999Z</time></trkpt><trkpt lat="43.38442165265787" lon="12.961157518856957"><ele>822.4285714285714</ele><time>2026-04-19T10:21:51.999Z</time></trkpt><trkpt lat="43.38436285533619" lon="12.961189917376844"><ele>822.1428571428571</ele><time>2026-04-19T10:21:57.999Z</time></trkpt><trkpt lat="43.384309885072845" lon="12.961245248565378"><ele>821.8571428571429</ele><time>2026-04-19T10:22:02.999Z</time></trkpt><trkpt lat="43.38426374205356" lon="12.961305349609123"><ele>821.5714285714286</ele><time>2026-04-19T10:22:08.999Z</time></trkpt><trkpt lat="43.384203936387834" lon="12.961362041824001"><ele>821.2857142857143</ele><time>2026-04-19T10:22:14.999Z</time></trkpt><trkpt lat="43.38414346183576" lon="12.961420396768299"><ele>821.0</ele><time>2026-04-19T10:22:22.998Z</time></trkpt><trkpt lat="43.38407626743256" lon="12.961479675713157"><ele>821.0000000000001</ele><time>2026-04-19T10:22:30Z</time></trkpt><trkpt lat="43.384019098178584" lon="12.961519812713941"><ele>821.0</ele><time>2026-04-19T10:22:38Z</time></trkpt><trkpt lat="43.38396595715163" lon="12.96157976151255"><ele>821.0</ele><time>2026-04-19T10:22:45Z</time></trkpt><trkpt lat="43.383897380637" lon="12.961646330941681"><ele>821.0</ele><time>2026-04-19T10:22:51Z</time></trkpt><trkpt lat="43.38385381094003" lon="12.961708873491029"><ele>821.0</ele><time>2026-04-19T10:22:59Z</time></trkpt><trkpt lat="43.38379764894187" lon="12.961771639371596"><ele>821.0000000000001</ele><time>2026-04-19T10:23:05.999Z</time></trkpt><trkpt lat="43.38376134754133" lon="12.961849187624304"><ele>821.0</ele><time>2026-04-19T10:23:12.999Z</time></trkpt><trkpt lat="43.3837260527589" lon="12.961927210761576"><ele>823.4285714285714</ele><time>2026-04-19T10:23:17.999Z</time></trkpt><trkpt lat="43.383694190213205" lon="12.962004393405207"><ele>825.8571428571429</ele><time>2026-04-19T10:23:23.999Z</time></trkpt><trkpt lat="43.38365669914306" lon="12.962079404213462"><ele>828.2857142857142</ele><time>2026-04-19T10:23:29.999Z</time></trkpt><trkpt lat="43.38362328868141" lon="12.962159824015265"><ele>830.7142857142858</ele><time>2026-04-19T10:23:36.999Z</time></trkpt><trkpt lat="43.383583622430464" lon="12.962239432378114"><ele>833.1428571428571</ele><time>2026-04-19T10:23:45.999Z</time></trkpt><trkpt lat="43.383567964579875" lon="12.962325236557495"><ele>835.5714285714286</ele><time>2026-04-19T10:24:13.999Z</time></trkpt><trkpt lat="43.38354802046152" lon="12.962414789446575"><ele>838.0</ele><time>2026-04-19T10:24:20.999Z</time></trkpt><trkpt lat="43.38349832278213" lon="12.962485644745424"><ele>837.9999999999999</ele><time>2026-04-19T10:24:31Z</time></trkpt><trkpt lat="43.38341752862516" lon="12.962474852292377"><ele>838.0</ele><time>2026-04-19T10:24:37Z</time></trkpt><trkpt lat="43.38345084363912" lon="12.962550850789622"><ele>838.0</ele><time>2026-04-19T10:24:42Z</time></trkpt><trkpt lat="43.383452793829846" lon="12.962644532054824"><ele>838.0</ele><time>2026-04-19T10:24:52Z</time></trkpt><trkpt lat="43.38345349139123" lon="12.96273326624379"><ele>838.0</ele><time>2026-04-19T10:25:04Z</time></trkpt><trkpt lat="43.3834667683043" lon="12.962819989600433"><ele>837.9999999999999</ele><time>2026-04-19T10:25:13.999Z</time></trkpt><trkpt lat="43.38346996792023" lon="12.962913651995594"><ele>838.0</ele><time>2026-04-19T10:25:28.999Z</time></trkpt><trkpt lat="43.38349260958958" lon="12.962995106889542"><ele>837.2857142857142</ele><time>2026-04-19T10:25:38.999Z</time></trkpt><trkpt lat="43.38350060837503" lon="12.96312380122566"><ele>836.5714285714286</ele><time>2026-04-19T10:25:47.999Z</time></trkpt><trkpt lat="43.38353681518765" lon="12.963202230266551"><ele>835.8571428571429</ele><time>2026-04-19T10:25:59.999Z</time></trkpt><trkpt lat="43.38357737189162" lon="12.963295929952384"><ele>835.1428571428571</ele><time>2026-04-19T10:26:06.999Z</time></trkpt><trkpt lat="43.38358838776382" lon="12.963393012853246"><ele>834.4285714285714</ele><time>2026-04-19T10:26:17.999Z</time></trkpt><trkpt lat="43.38353696599245" lon="12.963450995635386"><ele>833.7142857142857</ele><time>2026-04-19T10:26:24.999Z</time></trkpt><trkpt lat="43.38352002176999" lon="12.963545239323198"><ele>833.0</ele><time>2026-04-19T10:26:31.999Z</time></trkpt><trkpt lat="43.38347953949087" lon="12.963611673702859"><ele>831.4285714285714</ele><time>2026-04-19T10:26:37Z</time></trkpt><trkpt lat="43.38343616320336" lon="12.963677915877303"><ele>829.8571428571429</ele><time>2026-04-19T10:26:44Z</time></trkpt><trkpt lat="43.38338332280149" lon="12.9637300318915"><ele>828.2857142857142</ele><time>2026-04-19T10:26:52Z</time></trkpt><trkpt lat="43.383341276099806" lon="12.963815013526096"><ele>826.7142857142858</ele><time>2026-04-19T10:26:59Z</time></trkpt><trkpt lat="43.38330830102993" lon="12.963897780772834"><ele>825.1428571428571</ele><time>2026-04-19T10:27:05Z</time></trkpt><trkpt lat="43.38327111689747" lon="12.963968203105546"><ele>823.5714285714286</ele><time>2026-04-19T10:27:13Z</time></trkpt><trkpt lat="43.38321647638833" lon="12.964028201986482"><ele>822.0</ele><time>2026-04-19T10:27:19.999Z</time></trkpt><trkpt lat="43.383196164647536" lon="12.964131898373674"><ele>820.1428571428571</ele><time>2026-04-19T10:27:32.999Z</time></trkpt><trkpt lat="43.38318577850394" lon="12.96421852674787"><ele>818.2857142857142</ele><time>2026-04-19T10:27:41.999Z</time></trkpt><trkpt lat="43.38314214247086" lon="12.964285324675071"><ele>816.4285714285714</ele><time>2026-04-19T10:27:54.999Z</time></trkpt><trkpt lat="43.38307445436023" lon="12.964254802371004"><ele>814.5714285714286</ele><time>2026-04-19T10:28:01.999Z</time></trkpt><trkpt lat="43.382998402928436" lon="12.964272507014778"><ele>812.7142857142858</ele><time>2026-04-19T10:28:09.999Z</time></trkpt><trkpt lat="43.38292991914295" lon="12.964228149906274"><ele>810.8571428571429</ele><time>2026-04-19T10:28:16.999Z</time></trkpt><trkpt lat="43.38286421307173" lon="12.964222880357736"><ele>809.0</ele><time>2026-04-19T10:29:36.999Z</time></trkpt><trkpt lat="43.382788356287016" lon="12.964235836664296"><ele>809.0</ele><time>2026-04-19T10:29:42.999Z</time></trkpt><trkpt lat="43.38273385809317" lon="12.964286353630733"><ele>809.0</ele><time>2026-04-19T10:29:48.999Z</time></trkpt><trkpt lat="43.38266722900321" lon="12.964315490748469"><ele>809.0</ele><time>2026-04-19T10:29:54.999Z</time></trkpt><trkpt lat="43.3826000034841" lon="12.964336082637882"><ele>809.0</ele><time>2026-04-19T10:30:01.999Z</time></trkpt><trkpt lat="43.38254152697276" lon="12.964372826040561"><ele>809.0</ele><time>2026-04-19T10:30:08.999Z</time></trkpt><trkpt lat="43.38247340619322" lon="12.964362546860674"><ele>809.0</ele><time>2026-04-19T10:30:14.999Z</time></trkpt><trkpt lat="43.38240625993932" lon="12.964381282903826"><ele>809.0</ele><time>2026-04-19T10:30:19.999Z</time></trkpt><trkpt lat="43.38237357867622" lon="12.964480145322733"><ele>809.0</ele><time>2026-04-19T10:30:31.999Z</time></trkpt><trkpt lat="43.382312383324944" lon="12.964515240615802"><ele>809.0</ele><time>2026-04-19T10:30:40.999Z</time></trkpt><trkpt lat="43.38225252757323" lon="12.964549106961863"><ele>809.0</ele><time>2026-04-19T10:30:48Z</time></trkpt><trkpt lat="43.3821859470504" lon="12.964603254544917"><ele>809.0</ele><time>2026-04-19T10:30:52Z</time></trkpt><trkpt lat="43.382114129954694" lon="12.96465462028611"><ele>809.0</ele><time>2026-04-19T10:30:59Z</time></trkpt><trkpt lat="43.3820518681459" lon="12.964670989180503"><ele>809.0</ele><time>2026-04-19T10:31:08Z</time></trkpt><trkpt lat="43.38198415002132" lon="12.964697488357752"><ele>809.0</ele><time>2026-04-19T10:31:15Z</time></trkpt><trkpt lat="43.381928026183985" lon="12.964750731005461"><ele>809.1428571428571</ele><time>2026-04-19T10:31:21Z</time></trkpt><trkpt lat="43.38186008958898" lon="12.964755737049003"><ele>809.2857142857143</ele><time>2026-04-19T10:31:26Z</time></trkpt><trkpt lat="43.381805108067525" lon="12.964799269115918"><ele>809.4285714285713</ele><time>2026-04-19T10:31:32Z</time></trkpt><trkpt lat="43.381736408757426" lon="12.96480087114163"><ele>809.5714285714286</ele><time>2026-04-19T10:31:39Z</time></trkpt><trkpt lat="43.381676383660135" lon="12.964836953125827"><ele>809.7142857142857</ele><time>2026-04-19T10:31:44Z</time></trkpt><trkpt lat="43.381612671071004" lon="12.964847159910768"><ele>809.8571428571428</ele><time>2026-04-19T10:31:51.999Z</time></trkpt><trkpt lat="43.38154828094075" lon="12.964895156884646"><ele>810.0</ele><time>2026-04-19T10:31:57.999Z</time></trkpt><trkpt lat="43.3814757396208" lon="12.964937518540784"><ele>809.9999999999999</ele><time>2026-04-19T10:32:08.999Z</time></trkpt><trkpt lat="43.38140476796921" lon="12.964955940040262"><ele>810.0</ele><time>2026-04-19T10:32:14.999Z</time></trkpt><trkpt lat="43.38135073865522" lon="12.965034795294219"><ele>810.0</ele><time>2026-04-19T10:32:23.999Z</time></trkpt><trkpt lat="43.38131449777797" lon="12.965111773693295"><ele>810.0</ele><time>2026-04-19T10:32:30.999Z</time></trkpt><trkpt lat="43.381257655102104" lon="12.965160307773411"><ele>810.0</ele><time>2026-04-19T10:32:36.999Z</time></trkpt><trkpt lat="43.38120258085531" lon="12.96522098487521"><ele>809.9999999999999</ele><time>2026-04-19T10:32:41.999Z</time></trkpt><trkpt lat="43.381137578535416" lon="12.965256853400712"><ele>810.0</ele><time>2026-04-19T10:32:46.999Z</time></trkpt><trkpt lat="43.38109055602587" lon="12.96531511194174"><ele>807.5714285714286</ele><time>2026-04-19T10:32:52.999Z</time></trkpt><trkpt lat="43.381024119057365" lon="12.965361310311268"><ele>805.1428571428571</ele><time>2026-04-19T10:32:58.999Z</time></trkpt><trkpt lat="43.38095583065318" lon="12.965394670223"><ele>802.7142857142858</ele><time>2026-04-19T10:33:04.999Z</time></trkpt><trkpt lat="43.38091015242896" lon="12.965469974850166"><ele>800.2857142857142</ele><time>2026-04-19T10:33:11Z</time></trkpt><trkpt lat="43.38085828376373" lon="12.965531138111636"><ele>797.8571428571429</ele><time>2026-04-19T10:33:18Z</time></trkpt><trkpt lat="43.380795346543266" lon="12.965583848175706"><ele>795.4285714285714</ele><time>2026-04-19T10:33:25Z</time></trkpt><trkpt lat="43.38072333464382" lon="12.965619521418628"><ele>793.0</ele><time>2026-04-19T10:33:31Z</time></trkpt><trkpt lat="43.38066656057158" lon="12.965663712134482"><ele>793.0000000000001</ele><time>2026-04-19T10:33:36Z</time></trkpt><trkpt lat="43.38060251122945" lon="12.965691146180827"><ele>793.0</ele><time>2026-04-19T10:33:42.999Z</time></trkpt><trkpt lat="43.380547222575565" lon="12.965750923128358"><ele>793.0</ele><time>2026-04-19T10:33:50.999Z</time></trkpt><trkpt lat="43.38048896600366" lon="12.96582200193357"><ele>793.0</ele><time>2026-04-19T10:33:57.999Z</time></trkpt><trkpt lat="43.38043020773567" lon="12.965869369973786"><ele>793.0</ele><time>2026-04-19T10:34:04.999Z</time></trkpt><trkpt lat="43.38039185028019" lon="12.965938703734837"><ele>793.0000000000001</ele><time>2026-04-19T10:34:15.999Z</time></trkpt><trkpt lat="43.3803220880347" lon="12.965968206227535"><ele>793.0</ele><time>2026-04-19T10:34:23.999Z</time></trkpt><trkpt lat="43.38027766179924" lon="12.966037358224607"><ele>792.8571428571429</ele><time>2026-04-19T10:34:28.999Z</time></trkpt><trkpt lat="43.38022121773514" lon="12.966110668063267"><ele>792.7142857142858</ele><time>2026-04-19T10:34:34.999Z</time></trkpt><trkpt lat="43.38017017228912" lon="12.966169614307265"><ele>792.5714285714287</ele><time>2026-04-19T10:34:39.999Z</time></trkpt><trkpt lat="43.380107426267124" lon="12.966196813381815"><ele>792.4285714285714</ele><time>2026-04-19T10:34:46.999Z</time></trkpt><trkpt lat="43.380046514773646" lon="12.96626802695164"><ele>792.2857142857142</ele><time>2026-04-19T10:34:53.999Z</time></trkpt><trkpt lat="43.379982731157774" lon="12.966297042236206"><ele>792.1428571428572</ele><time>2026-04-19T10:34:58.999Z</time></trkpt><trkpt lat="43.37992291423971" lon="12.966357126994538"><ele>792.0</ele><time>2026-04-19T10:35:06Z</time></trkpt><trkpt lat="43.379874944034896" lon="12.966417304983906"><ele>792.0</ele><time>2026-04-19T10:35:13Z</time></trkpt><trkpt lat="43.379855947093795" lon="12.966532442271559"><ele>792.0</ele><time>2026-04-19T10:35:33Z</time></trkpt><trkpt lat="43.379812341009945" lon="12.966614891273512"><ele>792.0</ele><time>2026-04-19T10:35:51Z</time></trkpt><trkpt lat="43.37978524700226" lon="12.966708522747712"><ele>792.0</ele><time>2026-04-19T10:35:56Z</time></trkpt><trkpt lat="43.37976141518694" lon="12.966793328487487"><ele>792.0</ele><time>2026-04-19T10:36:02Z</time></trkpt><trkpt lat="43.37971004526194" lon="12.96687124913198"><ele>792.0</ele><time>2026-04-19T10:36:12.999Z</time></trkpt><trkpt lat="43.37970037936133" lon="12.966987302269182"><ele>793.1666666666666</ele><time>2026-04-19T10:36:29.999Z</time></trkpt><trkpt lat="43.37961667177566" lon="12.967076468077776"><ele>794.3333333333333</ele><time>2026-04-19T10:36:37.999Z</time></trkpt><trkpt lat="43.37962691744749" lon="12.96717083514575"><ele>795.5</ele><time>2026-04-19T10:36:42.999Z</time></trkpt><trkpt lat="43.37959633426896" lon="12.967259663881483"><ele>796.6666666666666</ele><time>2026-04-19T10:36:51.999Z</time></trkpt><trkpt lat="43.37955090215614" lon="12.967344717729427"><ele>797.8333333333333</ele><time>2026-04-19T10:36:58.999Z</time></trkpt><trkpt lat="43.37951154778507" lon="12.96742240707967"><ele>799.0</ele><time>2026-04-19T10:37:07Z</time></trkpt><trkpt lat="43.379484964884114" lon="12.967510040169415"><ele>796.2857142857143</ele><time>2026-04-19T10:37:25Z</time></trkpt><trkpt lat="43.37944996635176" lon="12.967585535219829"><ele>793.5714285714286</ele><time>2026-04-19T10:37:31Z</time></trkpt><trkpt lat="43.37941456083038" lon="12.967668824761253"><ele>790.8571428571429</ele><time>2026-04-19T10:37:36Z</time></trkpt><trkpt lat="43.37937129451257" lon="12.967741289651693"><ele>788.1428571428571</ele><time>2026-04-19T10:37:42Z</time></trkpt><trkpt lat="43.379321426642356" lon="12.967809260167206"><ele>785.4285714285713</ele><time>2026-04-19T10:37:50Z</time></trkpt><trkpt lat="43.37927615835105" lon="12.967917956074645"><ele>782.7142857142857</ele><time>2026-04-19T10:37:57Z</time></trkpt><trkpt lat="43.37921716057867" lon="12.967974942037666"><ele>780.0</ele><time>2026-04-19T10:38:01Z</time></trkpt><trkpt lat="43.37916190961756" lon="12.96802239316258"><ele>780.0</ele><time>2026-04-19T10:38:05Z</time></trkpt><trkpt lat="43.37913284096877" lon="12.968100826922319"><ele>780.0</ele><time>2026-04-19T10:38:10Z</time></trkpt><trkpt lat="43.379079814993396" lon="12.968163306521932"><ele>780.0</ele><time>2026-04-19T10:38:20Z</time></trkpt><trkpt lat="43.37901953661402" lon="12.968213976222543"><ele>780.0</ele><time>2026-04-19T10:38:27Z</time></trkpt><trkpt lat="43.3789587072592" lon="12.968253532657858"><ele>780.0</ele><time>2026-04-19T10:38:32.999Z</time></trkpt><trkpt lat="43.378892298241844" lon="12.968295364920033"><ele>780.0</ele><time>2026-04-19T10:38:40.999Z</time></trkpt><trkpt lat="43.37883472700743" lon="12.968339498407472"><ele>780.0</ele><time>2026-04-19T10:38:47.999Z</time></trkpt><trkpt lat="43.37877423802421" lon="12.968365880406754"><ele>776.0</ele><time>2026-04-19T10:38:54.999Z</time></trkpt><trkpt lat="43.37871499829004" lon="12.968424532007226"><ele>772.0</ele><time>2026-04-19T10:38:59.999Z</time></trkpt><trkpt lat="43.37865969431149" lon="12.968480024888004"><ele>768.0</ele><time>2026-04-19T10:39:06.999Z</time></trkpt><trkpt lat="43.37858686285628" lon="12.968501997932195"><ele>764.0</ele><time>2026-04-19T10:39:14Z</time></trkpt><trkpt lat="43.37852718618756" lon="12.96853038222292"><ele>760.0</ele><time>2026-04-19T10:39:19Z</time></trkpt><trkpt lat="43.378475241803905" lon="12.968587030734932"><ele>756.0</ele><time>2026-04-19T10:39:29Z</time></trkpt><trkpt lat="43.378419838839505" lon="12.968632128723616"><ele>752.0</ele><time>2026-04-19T10:39:38Z</time></trkpt><trkpt lat="43.378364014214114" lon="12.968673353985244"><ele>752.0</ele><time>2026-04-19T10:39:47Z</time></trkpt><trkpt lat="43.378307672772706" lon="12.968721634783465"><ele>752.0</ele><time>2026-04-19T10:39:54Z</time></trkpt><trkpt lat="43.37824494779296" lon="12.968751973225435"><ele>752.0</ele><time>2026-04-19T10:40:01Z</time></trkpt><trkpt lat="43.3781807075155" lon="12.968774287479508"><ele>752.0</ele><time>2026-04-19T10:40:13Z</time></trkpt><trkpt lat="43.378120203872356" lon="12.96882497154813"><ele>752.0</ele><time>2026-04-19T10:40:20Z</time></trkpt><trkpt lat="43.37803932676035" lon="12.968859060745743"><ele>752.0</ele><time>2026-04-19T10:40:29Z</time></trkpt><trkpt lat="43.37797635309489" lon="12.968897472911618"><ele>752.0</ele><time>2026-04-19T10:40:33.999Z</time></trkpt><trkpt lat="43.37790794566644" lon="12.968938257718664"><ele>752.8571428571429</ele><time>2026-04-19T10:40:40.999Z</time></trkpt><trkpt lat="43.37785814250125" lon="12.968993422855462"><ele>753.7142857142857</ele><time>2026-04-19T10:40:49.999Z</time></trkpt><trkpt lat="43.3777891978273" lon="12.96902040961617"><ele>754.5714285714287</ele><time>2026-04-19T10:40:55.999Z</time></trkpt><trkpt lat="43.37772718853607" lon="12.96907249439572"><ele>755.4285714285714</ele><time>2026-04-19T10:41:02.999Z</time></trkpt><trkpt lat="43.37766233999257" lon="12.969102687792933"><ele>756.2857142857143</ele><time>2026-04-19T10:41:08.999Z</time></trkpt><trkpt lat="43.377602559743686" lon="12.969140162007694"><ele>757.1428571428572</ele><time>2026-04-19T10:41:14.999Z</time></trkpt><trkpt lat="43.37754110881184" lon="12.969176336988204"><ele>758.0</ele><time>2026-04-19T10:41:22Z</time></trkpt><trkpt lat="43.37748358841777" lon="12.969215814572083"><ele>754.7142857142858</ele><time>2026-04-19T10:41:27Z</time></trkpt><trkpt lat="43.37740984824189" lon="12.969234734041146"><ele>751.4285714285714</ele><time>2026-04-19T10:41:35Z</time></trkpt><trkpt lat="43.37735384184042" lon="12.969297056738188"><ele>748.1428571428571</ele><time>2026-04-19T10:41:42Z</time></trkpt><trkpt lat="43.37744285195838" lon="12.969276382260249"><ele>744.8571428571429</ele><time>2026-04-19T10:41:54Z</time></trkpt><trkpt lat="43.37750499656625" lon="12.969293123678375"><ele>741.5714285714286</ele><time>2026-04-19T10:41:59Z</time></trkpt><trkpt lat="43.37756743464094" lon="12.969315023420302"><ele>738.2857142857143</ele><time>2026-04-19T10:42:08Z</time></trkpt><trkpt lat="43.377633773686526" lon="12.969311253824047"><ele>735.0</ele><time>2026-04-19T10:42:19Z</time></trkpt><trkpt lat="43.377690209563035" lon="12.969257748196721"><ele>735.0</ele><time>2026-04-19T10:43:20.999Z</time></trkpt><trkpt lat="43.37778682297093" lon="12.969235773979175"><ele>735.0</ele><time>2026-04-19T10:43:33Z</time></trkpt><trkpt lat="43.377850105884704" lon="12.96919995656026"><ele>735.0</ele><time>2026-04-19T10:43:39Z</time></trkpt><trkpt lat="43.377914095202705" lon="12.969156952475638"><ele>735.0</ele><time>2026-04-19T10:43:48Z</time></trkpt><trkpt lat="43.3779867461811" lon="12.969145604202023"><ele>735.0</ele><time>2026-04-19T10:43:55Z</time></trkpt><trkpt lat="43.37804978224157" lon="12.969119016832007"><ele>735.0</ele><time>2026-04-19T10:44:05Z</time></trkpt><trkpt lat="43.37811386793251" lon="12.969083519274147"><ele>735.0</ele><time>2026-04-19T10:44:14Z</time></trkpt><trkpt lat="43.378182750813295" lon="12.969071055457455"><ele>737.4285714285714</ele><time>2026-04-19T10:44:19Z</time></trkpt><trkpt lat="43.37826295229677" lon="12.969039317072761"><ele>739.8571428571429</ele><time>2026-04-19T10:44:30Z</time></trkpt><trkpt lat="43.378327450402885" lon="12.969057095941647"><ele>742.2857142857142</ele><time>2026-04-19T10:44:34Z</time></trkpt><trkpt lat="43.378392320304876" lon="12.969066862223356"><ele>744.7142857142858</ele><time>2026-04-19T10:44:41.999Z</time></trkpt><trkpt lat="43.37845937652807" lon="12.969042573689674"><ele>747.1428571428571</ele><time>2026-04-19T10:44:50.999Z</time></trkpt><trkpt lat="43.37852662616254" lon="12.969053532343633"><ele>749.5714285714286</ele><time>2026-04-19T10:45:00.999Z</time></trkpt><trkpt lat="43.378591841440304" lon="12.96900889418864"><ele>752.0</ele><time>2026-04-19T10:45:06.999Z</time></trkpt><trkpt lat="43.37865938542822" lon="12.969024900295837"><ele>752.0</ele><time>2026-04-19T10:45:11.999Z</time></trkpt><trkpt lat="43.37875239875865" lon="12.969020757577052"><ele>752.0</ele><time>2026-04-19T10:45:21.999Z</time></trkpt><trkpt lat="43.37881498119672" lon="12.969030398402415"><ele>752.0</ele><time>2026-04-19T10:45:30Z</time></trkpt><trkpt lat="43.378926951752234" lon="12.96901411942506"><ele>752.0</ele><time>2026-04-19T10:45:41Z</time></trkpt><trkpt lat="43.378995253805925" lon="12.968990111633333"><ele>752.0</ele><time>2026-04-19T10:45:47Z</time></trkpt><trkpt lat="43.379062826558915" lon="12.968971153063787"><ele>752.0</ele><time>2026-04-19T10:46:00Z</time></trkpt><trkpt lat="43.37914338127549" lon="12.968967447738223"><ele>750.1666666666666</ele><time>2026-04-19T10:46:10Z</time></trkpt><trkpt lat="43.3792114208934" lon="12.968944543114153"><ele>748.3333333333333</ele><time>2026-04-19T10:46:17Z</time></trkpt><trkpt lat="43.37927327840523" lon="12.968961505750965"><ele>746.5</ele><time>2026-04-19T10:46:24Z</time></trkpt><trkpt lat="43.3793353039055" lon="12.969031550100139"><ele>744.6666666666666</ele><time>2026-04-19T10:46:42Z</time></trkpt><trkpt lat="43.37939420358057" lon="12.969073074967552"><ele>742.8333333333334</ele><time>2026-04-19T10:46:58.999Z</time></trkpt><trkpt lat="43.37951107044867" lon="12.969056349661992"><ele>741.0</ele><time>2026-04-19T10:47:19.999Z</time></trkpt><trkpt lat="43.37958088783284" lon="12.969009972470712"><ele>741.0</ele><time>2026-04-19T10:47:29.999Z</time></trkpt><trkpt lat="43.37965014616146" lon="12.969009326816998"><ele>741.0</ele><time>2026-04-19T10:47:37Z</time></trkpt><trkpt lat="43.37972045314743" lon="12.968980198649996"><ele>741.0</ele><time>2026-04-19T10:47:45Z</time></trkpt><trkpt lat="43.379783958349" lon="12.968987821661612"><ele>741.0</ele><time>2026-04-19T10:49:34.999Z</time></trkpt><trkpt lat="43.37988439800599" lon="12.968959051457556"><ele>741.0</ele><time>2026-04-19T10:49:47Z</time></trkpt><trkpt lat="43.37998963543989" lon="12.968958013146278"><ele>741.0</ele><time>2026-04-19T10:49:59Z</time></trkpt><trkpt lat="43.38014156044163" lon="12.969024662362866"><ele>739.5714285714286</ele><time>2026-04-19T10:50:11Z</time></trkpt><trkpt lat="43.3802112252469" lon="12.969061666464395"><ele>738.1428571428572</ele><time>2026-04-19T10:50:21Z</time></trkpt><trkpt lat="43.380273799075134" lon="12.96907401491787"><ele>736.7142857142858</ele><time>2026-04-19T10:50:38Z</time></trkpt><trkpt lat="43.38032063114553" lon="12.969138968320424"><ele>735.2857142857142</ele><time>2026-04-19T10:50:50Z</time></trkpt><trkpt lat="43.3803774617974" lon="12.969176335711508"><ele>733.8571428571429</ele><time>2026-04-19T10:51:03.999Z</time></trkpt><trkpt lat="43.38042263104023" lon="12.969243466740867"><ele>732.4285714285714</ele><time>2026-04-19T10:51:14.999Z</time></trkpt><trkpt lat="43.380496466426315" lon="12.969261183285974"><ele>731.0</ele><time>2026-04-19T10:51:24.999Z</time></trkpt><trkpt lat="43.3805639095787" lon="12.96922901658678"><ele>728.8571428571429</ele><time>2026-04-19T10:51:34.999Z</time></trkpt><trkpt lat="43.38063199934151" lon="12.969197804411147"><ele>726.7142857142857</ele><time>2026-04-19T10:51:40.999Z</time></trkpt><trkpt lat="43.38068024478254" lon="12.969139776433412"><ele>724.5714285714287</ele><time>2026-04-19T10:52:02Z</time></trkpt><trkpt lat="43.38073395146281" lon="12.969089806025268"><ele>722.4285714285714</ele><time>2026-04-19T10:52:13Z</time></trkpt><trkpt lat="43.380805411946824" lon="12.969083919301212"><ele>720.2857142857143</ele><time>2026-04-19T10:52:17Z</time></trkpt><trkpt lat="43.380861581380984" lon="12.969037334818655"><ele>718.1428571428572</ele><time>2026-04-19T10:52:28Z</time></trkpt><trkpt lat="43.38091773682055" lon="12.968993447276688"><ele>716.0</ele><time>2026-04-19T10:52:32Z</time></trkpt><trkpt lat="43.38101231502581" lon="12.96889868199787"><ele>716.0000000000001</ele><time>2026-04-19T10:52:44Z</time></trkpt><trkpt lat="43.38105472261724" lon="12.968815049261181"><ele>716.0</ele><time>2026-04-19T10:52:54.999Z</time></trkpt><trkpt lat="43.38110206292024" lon="12.968753639389623"><ele>716.0</ele><time>2026-04-19T10:53:02.999Z</time></trkpt><trkpt lat="43.38114699826682" lon="12.96866841347477"><ele>716.0</ele><time>2026-04-19T10:53:10.999Z</time></trkpt><trkpt lat="43.38116695723343" lon="12.968580258933336"><ele>716.0</ele><time>2026-04-19T10:53:17.999Z</time></trkpt><trkpt lat="43.38121017196034" lon="12.96851528831038"><ele>716.0000000000001</ele><time>2026-04-19T10:53:24.999Z</time></trkpt><trkpt lat="43.38123812642883" lon="12.968420399800381"><ele>716.0</ele><time>2026-04-19T10:53:31.999Z</time></trkpt><trkpt lat="43.381266578270235" lon="12.968342007024193"><ele>713.5714285714287</ele><time>2026-04-19T10:53:38.999Z</time></trkpt><trkpt lat="43.381301737595635" lon="12.968270156982676"><ele>711.1428571428571</ele><time>2026-04-19T10:53:46.999Z</time></trkpt><trkpt lat="43.381336204212666" lon="12.968197308189815"><ele>708.7142857142858</ele><time>2026-04-19T10:54:05Z</time></trkpt><trkpt lat="43.38140312648765" lon="12.968177763154157"><ele>706.2857142857143</ele><time>2026-04-19T10:54:21Z</time></trkpt><trkpt lat="43.381421223722725" lon="12.968050865710424"><ele>703.8571428571429</ele><time>2026-04-19T10:54:30Z</time></trkpt><trkpt lat="43.38144127038712" lon="12.967964727443707"><ele>701.4285714285714</ele><time>2026-04-19T10:54:37Z</time></trkpt><trkpt lat="43.381475312514084" lon="12.967882685377756"><ele>699.0</ele><time>2026-04-19T10:54:44Z</time></trkpt><trkpt lat="43.38154109827461" lon="12.967830971964712"><ele>699.0</ele><time>2026-04-19T10:54:50Z</time></trkpt><trkpt lat="43.38157224325747" lon="12.96775560751047"><ele>699.0</ele><time>2026-04-19T10:54:59Z</time></trkpt><trkpt lat="43.38163030498153" lon="12.967705213088216"><ele>699.0</ele><time>2026-04-19T10:55:04.999Z</time></trkpt><trkpt lat="43.38169102984858" lon="12.967670456876379"><ele>699.0</ele><time>2026-04-19T10:55:10.999Z</time></trkpt><trkpt lat="43.38175196368195" lon="12.967601262735316"><ele>699.0</ele><time>2026-04-19T10:55:19.999Z</time></trkpt><trkpt lat="43.38180636036127" lon="12.967548484415303"><ele>699.0</ele><time>2026-04-19T10:55:24.999Z</time></trkpt><trkpt lat="43.38187067005984" lon="12.967529991485662"><ele>699.0</ele><time>2026-04-19T10:55:29.999Z</time></trkpt><trkpt lat="43.381920888546915" lon="12.967448250784729"><ele>699.0</ele><time>2026-04-19T10:55:38.999Z</time></trkpt><trkpt lat="43.38198816499714" lon="12.967433638965396"><ele>699.0</ele><time>2026-04-19T10:55:48.999Z</time></trkpt><trkpt lat="43.382052507832036" lon="12.96740516815101"><ele>699.0</ele><time>2026-04-19T10:55:55.999Z</time></trkpt><trkpt lat="43.38217327019669" lon="12.967404543103145"><ele>699.0</ele><time>2026-04-19T10:56:24Z</time></trkpt><trkpt lat="43.3821146621032" lon="12.96744770409761"><ele>699.0</ele><time>2026-04-19T10:59:43.999Z</time></trkpt><trkpt lat="43.38211049350176" lon="12.96753543486001"><ele>699.0</ele><time>2026-04-19T11:00:22Z</time></trkpt><trkpt lat="43.3821828911942" lon="12.967559722475688"><ele>692.3333333333334</ele><time>2026-04-19T11:00:51Z</time></trkpt><trkpt lat="43.38225312516105" lon="12.967645998006581"><ele>685.6666666666666</ele><time>2026-04-19T11:01:20.999Z</time></trkpt><trkpt lat="43.382188195666124" lon="12.967682212652125"><ele>679.0</ele><time>2026-04-19T11:01:29.999Z</time></trkpt><trkpt lat="43.38223373713608" lon="12.96776832187513"><ele>672.3333333333333</ele><time>2026-04-19T11:02:00.999Z</time></trkpt><trkpt lat="43.38222421387279" lon="12.967877378842934"><ele>665.6666666666666</ele><time>2026-04-19T11:02:26Z</time></trkpt><trkpt lat="43.38218342829876" lon="12.967950445622732"><ele>659.0</ele><time>2026-04-19T11:02:39Z</time></trkpt><trkpt lat="43.38224201206565" lon="12.967987877490485"><ele>659.0</ele><time>2026-04-19T11:02:51Z</time></trkpt><trkpt lat="43.382276873880606" lon="12.968062240747766"><ele>659.0</ele><time>2026-04-19T11:03:08Z</time></trkpt><trkpt lat="43.382322132766454" lon="12.96814048373801"><ele>659.0</ele><time>2026-04-19T11:03:26.999Z</time></trkpt><trkpt lat="43.38230932589726" lon="12.968226778404244"><ele>659.0</ele><time>2026-04-19T11:04:02.999Z</time></trkpt><trkpt lat="43.38231735295466" lon="12.968314711715111"><ele>659.0</ele><time>2026-04-19T11:04:08.999Z</time></trkpt><trkpt lat="43.382353744764444" lon="12.968396218534448"><ele>659.0</ele><time>2026-04-19T11:04:34Z</time></trkpt><trkpt lat="43.38240801653133" lon="12.968446458843387"><ele>659.0</ele><time>2026-04-19T11:04:46Z</time></trkpt><trkpt lat="43.382540633354516" lon="12.968517672828051"><ele>655.7142857142858</ele><time>2026-04-19T11:09:45.999Z</time></trkpt><trkpt lat="43.38251453682226" lon="12.968629636726668"><ele>652.4285714285713</ele><time>2026-04-19T11:10:03.999Z</time></trkpt><trkpt lat="43.38253246708643" lon="12.968730807548313"><ele>649.1428571428571</ele><time>2026-04-19T11:10:42Z</time></trkpt><trkpt lat="43.382468010375796" lon="12.968743581507521"><ele>645.8571428571429</ele><time>2026-04-19T11:10:47Z</time></trkpt><trkpt lat="43.38251331792362" lon="12.968813352110262"><ele>642.5714285714287</ele><time>2026-04-19T11:11:45.999Z</time></trkpt><trkpt lat="43.38250772247875" lon="12.968907522281508"><ele>639.2857142857142</ele><time>2026-04-19T11:14:28.999Z</time></trkpt><trkpt lat="43.382486500545554" lon="12.968993498441892"><ele>636.0</ele><time>2026-04-19T11:15:22Z</time></trkpt><trkpt lat="43.38254658165299" lon="12.969055943367342"><ele>636.0</ele><time>2026-04-19T11:15:45.999Z</time></trkpt><trkpt lat="43.382531911544326" lon="12.969148289101948"><ele>636.0</ele><time>2026-04-19T11:15:52.999Z</time></trkpt><trkpt lat="43.38255198928725" lon="12.969242750203781"><ele>636.0</ele><time>2026-04-19T11:15:57.999Z</time></trkpt><trkpt lat="43.382614452981535" lon="12.969318286591195"><ele>636.0</ele><time>2026-04-19T11:16:30.999Z</time></trkpt><trkpt lat="43.38259378767615" lon="12.969405061254404"><ele>636.0</ele><time>2026-04-19T11:17:14Z</time></trkpt><trkpt lat="43.38261042115537" lon="12.969500325132667"><ele>636.0</ele><time>2026-04-19T11:17:25Z</time></trkpt><trkpt lat="43.38262160184451" lon="12.96961763883321"><ele>636.0</ele><time>2026-04-19T11:17:40.999Z</time></trkpt><trkpt lat="43.382663808587374" lon="12.969713474726111"><ele>633.5714285714286</ele><time>2026-04-19T11:18:03.999Z</time></trkpt><trkpt lat="43.38266167422052" lon="12.969804654291739"><ele>631.1428571428572</ele><time>2026-04-19T11:18:08.999Z</time></trkpt><trkpt lat="43.382678873165176" lon="12.969903718819305"><ele>628.7142857142858</ele><time>2026-04-19T11:18:26.999Z</time></trkpt><trkpt lat="43.382716118785" lon="12.969984936225876"><ele>626.2857142857142</ele><time>2026-04-19T11:18:51.999Z</time></trkpt><trkpt lat="43.38277128917135" lon="12.970038853469552"><ele>623.8571428571429</ele><time>2026-04-19T11:18:58.999Z</time></trkpt><trkpt lat="43.38281248139757" lon="12.969957694524359"><ele>621.4285714285714</ele><time>2026-04-19T11:19:01.998Z</time></trkpt><trkpt lat="43.382889139246174" lon="12.969967842935045"><ele>619.0</ele><time>2026-04-19T11:19:16.999Z</time></trkpt><trkpt lat="43.382949621658554" lon="12.97002086084588"><ele>615.3333333333334</ele><time>2026-04-19T11:19:43.999Z</time></trkpt><trkpt lat="43.382995864238644" lon="12.970165043368786"><ele>611.6666666666667</ele><time>2026-04-19T11:20:38.999Z</time></trkpt><trkpt lat="43.383045300931116" lon="12.97023132720676"><ele>608.0</ele><time>2026-04-19T11:20:45.999Z</time></trkpt><trkpt lat="43.38308563590844" lon="12.970359807048169"><ele>604.3333333333334</ele><time>2026-04-19T11:21:07.999Z</time></trkpt><trkpt lat="43.383158936362236" lon="12.970414557114122"><ele>600.6666666666666</ele><time>2026-04-19T11:21:24Z</time></trkpt><trkpt lat="43.38321613969504" lon="12.970455578417312"><ele>597.0</ele><time>2026-04-19T11:21:34Z</time></trkpt><trkpt lat="43.383277000876575" lon="12.970491908762122"><ele>593.2857142857143</ele><time>2026-04-19T11:21:45Z</time></trkpt><trkpt lat="43.383255096259724" lon="12.970584398552415"><ele>589.5714285714286</ele><time>2026-04-19T11:21:53Z</time></trkpt><trkpt lat="43.383213460098844" lon="12.970667806130555"><ele>585.8571428571429</ele><time>2026-04-19T11:21:59Z</time></trkpt><trkpt lat="43.38318724650437" lon="12.970769849692674"><ele>582.1428571428571</ele><time>2026-04-19T11:22:06Z</time></trkpt><trkpt lat="43.38318518401816" lon="12.970858448867995"><ele>578.4285714285714</ele><time>2026-04-19T11:22:12.999Z</time></trkpt><trkpt lat="43.38314316945569" lon="12.970933901877347"><ele>574.7142857142858</ele><time>2026-04-19T11:22:21.999Z</time></trkpt><trkpt lat="43.38313241069073" lon="12.971020062339432"><ele>571.0</ele><time>2026-04-19T11:22:34.999Z</time></trkpt><trkpt lat="43.38312462431195" lon="12.971106435856258"><ele>569.2857142857143</ele><time>2026-04-19T11:23:18Z</time></trkpt><trkpt lat="43.38305373156866" lon="12.971139282491418"><ele>567.5714285714286</ele><time>2026-04-19T11:23:57Z</time></trkpt><trkpt lat="43.38300472090005" lon="12.971199094992622"><ele>565.8571428571429</ele><time>2026-04-19T11:24:31.999Z</time></trkpt><trkpt lat="43.382944099757864" lon="12.971246449605065"><ele>564.1428571428571</ele><time>2026-04-19T11:24:55.999Z</time></trkpt><trkpt lat="43.38290130032635" lon="12.971310946585676"><ele>562.4285714285714</ele><time>2026-04-19T11:25:02.999Z</time></trkpt><trkpt lat="43.38286659220601" lon="12.971391155100848"><ele>560.7142857142858</ele><time>2026-04-19T11:25:12.999Z</time></trkpt><trkpt lat="43.38283659332194" lon="12.97147123047509"><ele>559.0</ele><time>2026-04-19T11:25:41Z</time></trkpt><trkpt lat="43.38282753432689" lon="12.97156057209261"><ele>559.0</ele><time>2026-04-19T11:25:55Z</time></trkpt><trkpt lat="43.382814098750615" lon="12.971653874879946"><ele>559.0</ele><time>2026-04-19T11:27:12.999Z</time></trkpt><trkpt lat="43.382752005521695" lon="12.971712858581093"><ele>559.0</ele><time>2026-04-19T11:27:55Z</time></trkpt><trkpt lat="43.38274421473007" lon="12.971802697794454"><ele>559.0</ele><time>2026-04-19T11:28:05Z</time></trkpt><trkpt lat="43.38273561567301" lon="12.971901213016121"><ele>559.0</ele><time>2026-04-19T11:28:16Z</time></trkpt><trkpt lat="43.38269308661793" lon="12.971965408039198"><ele>559.0</ele><time>2026-04-19T11:28:29Z</time></trkpt><trkpt lat="43.382619665848736" lon="12.972000526462045"><ele>559.0</ele><time>2026-04-19T11:28:38Z</time></trkpt><trkpt lat="43.38254132119202" lon="12.972061243497711"><ele>553.1666666666667</ele><time>2026-04-19T11:28:50.999Z</time></trkpt><trkpt lat="43.38250583088838" lon="12.972140809804957"><ele>547.3333333333334</ele><time>2026-04-19T11:28:58.999Z</time></trkpt><trkpt lat="43.38248232548763" lon="12.97222212674505"><ele>541.5</ele><time>2026-04-19T11:29:10.999Z</time></trkpt><trkpt lat="43.382420101756885" lon="12.972290286295646"><ele>535.6666666666666</ele><time>2026-04-19T11:29:18.999Z</time></trkpt><trkpt lat="43.38235500072375" lon="12.972311512709515"><ele>529.8333333333333</ele><time>2026-04-19T11:29:27.999Z</time></trkpt><trkpt lat="43.38225399942401" lon="12.972401166885266"><ele>524.0</ele><time>2026-04-19T11:30:04Z</time></trkpt><trkpt lat="43.38223531933951" lon="12.972496280504382"><ele>522.4285714285714</ele><time>2026-04-19T11:31:03.999Z</time></trkpt><trkpt lat="43.382225179355586" lon="12.972584257058873"><ele>520.8571428571429</ele><time>2026-04-19T11:31:51Z</time></trkpt><trkpt lat="43.38228712560428" lon="12.972601578180749"><ele>519.2857142857143</ele><time>2026-04-19T11:32:00Z</time></trkpt><trkpt lat="43.38227296713085" lon="12.972690056666496"><ele>517.7142857142858</ele><time>2026-04-19T11:32:09Z</time></trkpt><trkpt lat="43.382296820018475" lon="12.972781380223088"><ele>516.1428571428571</ele><time>2026-04-19T11:32:27Z</time></trkpt><trkpt lat="43.38229184608612" lon="12.972873938445396"><ele>514.5714285714287</ele><time>2026-04-19T11:32:43Z</time></trkpt><trkpt lat="43.38228944277292" lon="12.972976303953295"><ele>513.0</ele><time>2026-04-19T11:32:55.999Z</time></trkpt><trkpt lat="43.382268355398395" lon="12.97306268585948"><ele>513.0</ele><time>2026-04-19T11:33:09.999Z</time></trkpt><trkpt lat="43.38230675549905" lon="12.973137550031689"><ele>513.0</ele><time>2026-04-19T11:33:14.999Z</time></trkpt><trkpt lat="43.38233853787253" lon="12.973215309764619"><ele>513.0</ele><time>2026-04-19T11:33:17.999Z</time></trkpt><trkpt lat="43.38245728483712" lon="12.973227354666022"><ele>513.0</ele><time>2026-04-19T11:34:24Z</time></trkpt><trkpt lat="43.38246591692952" lon="12.973330756241879"><ele>513.0</ele><time>2026-04-19T11:34:38Z</time></trkpt><trkpt lat="43.3825327346118" lon="12.973325194254086"><ele>513.0</ele><time>2026-04-19T11:35:05.999Z</time></trkpt><trkpt lat="43.382574688234456" lon="12.973399032645933"><ele>513.0000000000001</ele><time>2026-04-19T11:35:18.999Z</time></trkpt><trkpt lat="43.382596852495624" lon="12.973492817081619"><ele>513.0</ele><time>2026-04-19T11:35:41.999Z</time></trkpt><trkpt lat="43.382654577029065" lon="12.97345489128284"><ele>513.0</ele><time>2026-04-19T11:36:29Z</time></trkpt><trkpt lat="43.38272266355943" lon="12.973401618777663"><ele>513.0</ele><time>2026-04-19T11:37:40.999Z</time></trkpt><trkpt lat="43.38274732243001" lon="12.97330679161433"><ele>513.0</ele><time>2026-04-19T11:37:57.999Z</time></trkpt><trkpt lat="43.382764011729094" lon="12.973215685367025"><ele>513.0000000000001</ele><time>2026-04-19T11:38:19Z</time></trkpt><trkpt lat="43.38278580617683" lon="12.973128318196755"><ele>513.0</ele><time>2026-04-19T11:38:30Z</time></trkpt><trkpt lat="43.38284689773876" lon="12.973084153631143"><ele>513.0</ele><time>2026-04-19T11:38:50Z</time></trkpt><trkpt lat="43.38296434788091" lon="12.973070513921266"><ele>513.0</ele><time>2026-04-19T11:39:19.999Z</time></trkpt><trkpt lat="43.383036504554674" lon="12.973043265602277"><ele>513.0</ele><time>2026-04-19T11:39:42.999Z</time></trkpt><trkpt lat="43.38308382167478" lon="12.973115629109605"><ele>513.0</ele><time>2026-04-19T11:40:24Z</time></trkpt><trkpt lat="43.38319970015399" lon="12.97311807094823"><ele>513.0</ele><time>2026-04-19T11:41:54.999Z</time></trkpt><trkpt lat="43.383329500452014" lon="12.973172723708773"><ele>504.0</ele><time>2026-04-19T11:43:33.999Z</time></trkpt><trkpt lat="43.3834306796213" lon="12.97319554788507"><ele>495.0</ele><time>2026-04-19T11:44:13.999Z</time></trkpt><trkpt lat="43.38339172709455" lon="12.973280682625706"><ele>486.0</ele><time>2026-04-19T11:44:29Z</time></trkpt><trkpt lat="43.383372571442116" lon="12.973401804102313"><ele>477.0</ele><time>2026-04-19T11:44:52Z</time></trkpt><trkpt lat="43.3834617399597" lon="12.973456407956576"><ele>468.0</ele><time>2026-04-19T11:45:21.999Z</time></trkpt><trkpt lat="43.38353682981748" lon="12.973426762439825"><ele>459.0</ele><time>2026-04-19T11:45:57.999Z</time></trkpt><trkpt lat="43.38360433396513" lon="12.973398322542588"><ele>459.0</ele><time>2026-04-19T11:46:40Z</time></trkpt><trkpt lat="43.38371858917803" lon="12.973450749131931"><ele>459.0</ele><time>2026-04-19T11:47:15.999Z</time></trkpt><trkpt lat="43.38372207068928" lon="12.973538395479762"><ele>459.0</ele><time>2026-04-19T11:47:44.999Z</time></trkpt><trkpt lat="43.38377817029651" lon="12.973583309959805"><ele>459.0</ele><time>2026-04-19T11:48:02.999Z</time></trkpt><trkpt lat="43.383820722301444" lon="12.973496133264527"><ele>459.0</ele><time>2026-04-19T11:48:14.999Z</time></trkpt><trkpt lat="43.38391235827836" lon="12.973432705634087"><ele>459.0</ele><time>2026-04-19T11:48:44Z</time></trkpt><trkpt lat="43.38385696874388" lon="12.973512971538577"><ele>449.0</ele><time>2026-04-19T11:49:13Z</time></trkpt><trkpt lat="43.38384854797551" lon="12.973600389000099"><ele>439.0</ele><time>2026-04-19T11:49:18.999Z</time></trkpt><trkpt lat="43.38390719865603" lon="12.973646432477377"><ele>429.0</ele><time>2026-04-19T11:49:32.999Z</time></trkpt><trkpt lat="43.38396242450057" lon="12.973697198369782"><ele>419.0</ele><time>2026-04-19T11:50:09.999Z</time></trkpt><trkpt lat="43.38407430303651" lon="12.973710481710809"><ele>409.0</ele><time>2026-04-19T11:50:23.999Z</time></trkpt><trkpt lat="43.38411369072412" lon="12.97378029805539"><ele>399.0</ele><time>2026-04-19T11:51:00Z</time></trkpt><trkpt lat="43.38417047392649" lon="12.973835346927366"><ele>389.0</ele><time>2026-04-19T11:52:31.999Z</time></trkpt><trkpt lat="43.38423516647471" lon="12.973842272203662"><ele>389.0</ele><time>2026-04-19T11:52:45Z</time></trkpt><trkpt lat="43.38432267248309" lon="12.97385053115657"><ele>389.0</ele><time>2026-04-19T11:53:40.999Z</time></trkpt><trkpt lat="43.38436980888373" lon="12.973921162743242"><ele>389.0</ele><time>2026-04-19T11:54:13.999Z</time></trkpt><trkpt lat="43.38432912594219" lon="12.97402801421542"><ele>389.0</ele><time>2026-04-19T11:55:05Z</time></trkpt><trkpt lat="43.38448799762568" lon="12.974058750817218"><ele>389.0</ele><time>2026-04-19T11:56:37.999Z</time></trkpt><trkpt lat="43.384550105445" lon="12.974097442209924"><ele>389.0</ele><time>2026-04-19T11:56:51.999Z</time></trkpt><trkpt lat="43.38462724880835" lon="12.974112919825721"><ele>389.0</ele><time>2026-04-19T11:57:28Z</time></trkpt><trkpt lat="43.38468959374882" lon="12.974152818153776"><ele>389.0</ele><time>2026-04-19T11:57:46Z</time></trkpt><trkpt lat="43.38473085546999" lon="12.974220947338504"><ele>389.0</ele><time>2026-04-19T11:58:07.999Z</time></trkpt><trkpt lat="43.38481331376374" lon="12.97424480359949"><ele>389.0</ele><time>2026-04-19T11:58:32.999Z</time></trkpt><trkpt lat="43.38487485467688" lon="12.974280623551032"><ele>389.0</ele><time>2026-04-19T11:58:39.999Z</time></trkpt><trkpt lat="43.38491426431387" lon="12.974352449710155"><ele>389.0</ele><time>2026-04-19T11:58:54.999Z</time></trkpt><trkpt lat="43.38494441307663" lon="12.974465514809511"><ele>379.99999999999994</ele><time>2026-04-19T11:59:11Z</time></trkpt><trkpt lat="43.38500276089478" lon="12.974581971555073"><ele>371.0</ele><time>2026-04-19T11:59:59.999Z</time></trkpt><trkpt lat="43.38502739885987" lon="12.97471311822585"><ele>362.0</ele><time>2026-04-19T12:00:10.999Z</time></trkpt><trkpt lat="43.38508603171444" lon="12.97479189252915"><ele>353.0</ele><time>2026-04-19T12:00:49.999Z</time></trkpt><trkpt lat="43.38514990463239" lon="12.974851690531844"><ele>344.0</ele><time>2026-04-19T12:00:58.999Z</time></trkpt><trkpt lat="43.38519705209646" lon="12.97491120931857"><ele>335.0</ele><time>2026-04-19T12:01:12Z</time></trkpt><trkpt lat="43.38526321043639" lon="12.97490462742748"><ele>335.0</ele><time>2026-04-19T12:01:18Z</time></trkpt><trkpt lat="43.385319830489664" lon="12.974953950397255"><ele>335.0</ele><time>2026-04-19T12:01:31Z</time></trkpt><trkpt lat="43.385389913670316" lon="12.974988937965318"><ele>335.0</ele><time>2026-04-19T12:01:40Z</time></trkpt><trkpt lat="43.385458754028264" lon="12.97502075304482"><ele>335.0</ele><time>2026-04-19T12:01:53Z</time></trkpt><trkpt lat="43.38549782253987" lon="12.975092708841625"><ele>335.0</ele><time>2026-04-19T12:02:01.999Z</time></trkpt><trkpt lat="43.3855635451082" lon="12.975091197574436"><ele>335.0</ele><time>2026-04-19T12:02:08.999Z</time></trkpt><trkpt lat="43.385699484181416" lon="12.975031889688"><ele>329.0</ele><time>2026-04-19T12:02:27.999Z</time></trkpt><trkpt lat="43.38577342715823" lon="12.9750358949636"><ele>323.0</ele><time>2026-04-19T12:06:17.999Z</time></trkpt><trkpt lat="43.38583204537051" lon="12.975085771073601"><ele>317.0</ele><time>2026-04-19T12:06:24.999Z</time></trkpt><trkpt lat="43.3858973229133" lon="12.975077639949916"><ele>311.0</ele><time>2026-04-19T12:06:33.999Z</time></trkpt><trkpt lat="43.386018131814744" lon="12.975028639244046"><ele>305.0</ele><time>2026-04-19T12:06:46.999Z</time></trkpt><trkpt lat="43.38606736021142" lon="12.975084373790034"><ele>299.0</ele><time>2026-04-19T12:06:53.999Z</time></trkpt><trkpt lat="43.38614090571847" lon="12.975075544906487"><ele>299.0</ele><time>2026-04-19T12:07:01.999Z</time></trkpt><trkpt lat="43.38621469885914" lon="12.975076417672268"><ele>299.0</ele><time>2026-04-19T12:07:10.999Z</time></trkpt><trkpt lat="43.38627647653911" lon="12.975050509144053"><ele>299.0</ele><time>2026-04-19T12:07:16.998Z</time></trkpt><trkpt lat="43.3863362939091" lon="12.975086792454672"><ele>299.0</ele><time>2026-04-19T12:07:25Z</time></trkpt><trkpt lat="43.386406600274405" lon="12.975061723638293"><ele>299.0</ele><time>2026-04-19T12:07:35Z</time></trkpt><trkpt lat="43.38647140226914" lon="12.975008877323631"><ele>299.0</ele><time>2026-04-19T12:07:44Z</time></trkpt><trkpt lat="43.386547097651274" lon="12.974996236287147"><ele>299.0</ele><time>2026-04-19T12:07:53Z</time></trkpt><trkpt lat="43.38660622915525" lon="12.975033445719674"><ele>295.2857142857143</ele><time>2026-04-19T12:07:59Z</time></trkpt><trkpt lat="43.38669457507766" lon="12.974992238391726"><ele>291.57142857142856</ele><time>2026-04-19T12:08:07Z</time></trkpt><trkpt lat="43.386759591384426" lon="12.974936959066229"><ele>287.8571428571429</ele><time>2026-04-19T12:08:14.999Z</time></trkpt><trkpt lat="43.38683069928483" lon="12.974963265167988"><ele>284.1428571428571</ele><time>2026-04-19T12:08:20.999Z</time></trkpt><trkpt lat="43.38685732734842" lon="12.975046886448192"><ele>280.42857142857144</ele><time>2026-04-19T12:08:25.999Z</time></trkpt><trkpt lat="43.3868627531479" lon="12.97513591233289"><ele>276.7142857142857</ele><time>2026-04-19T12:08:30.999Z</time></trkpt><trkpt lat="43.38684539613687" lon="12.975231585624396"><ele>273.0</ele><time>2026-04-19T12:08:37.999Z</time></trkpt><trkpt lat="43.38684925077104" lon="12.97534604490262"><ele>273.57142857142856</ele><time>2026-04-19T12:08:44.999Z</time></trkpt><trkpt lat="43.38688321542172" lon="12.975428303967607"><ele>274.1428571428571</ele><time>2026-04-19T12:08:52.999Z</time></trkpt><trkpt lat="43.386913735234145" lon="12.975507685285416"><ele>274.7142857142857</ele><time>2026-04-19T12:08:58.999Z</time></trkpt><trkpt lat="43.38697188468026" lon="12.975576760878775"><ele>275.2857142857143</ele><time>2026-04-19T12:09:04.999Z</time></trkpt><trkpt lat="43.38701298171869" lon="12.975643495552667"><ele>275.85714285714283</ele><time>2026-04-19T12:09:11.999Z</time></trkpt><trkpt lat="43.38706403095945" lon="12.975724275058461"><ele>276.42857142857144</ele><time>2026-04-19T12:09:18.999Z</time></trkpt><trkpt lat="43.387078474509686" lon="12.97582549537402"><ele>277.0</ele><time>2026-04-19T12:09:26.998Z</time></trkpt><trkpt lat="43.387131140980806" lon="12.975876369453495"><ele>277.0</ele><time>2026-04-19T12:09:32Z</time></trkpt><trkpt lat="43.38716762042104" lon="12.975954064328205"><ele>277.0</ele><time>2026-04-19T12:09:39Z</time></trkpt><trkpt lat="43.38720089294133" lon="12.976046191254213"><ele>277.0</ele><time>2026-04-19T12:09:45Z</time></trkpt><trkpt lat="43.38724721100669" lon="12.976114199102891"><ele>277.0</ele><time>2026-04-19T12:09:52Z</time></trkpt><trkpt lat="43.387293609109435" lon="12.976195779931787"><ele>277.0</ele><time>2026-04-19T12:10:00Z</time></trkpt><trkpt lat="43.387326336327725" lon="12.976278002622896"><ele>277.0</ele><time>2026-04-19T12:10:09Z</time></trkpt><trkpt lat="43.387351538995105" lon="12.976369425109247"><ele>277.0</ele><time>2026-04-19T12:10:23.999Z</time></trkpt><trkpt lat="43.387389567867004" lon="12.976456928879756"><ele>272.85714285714283</ele><time>2026-04-19T12:10:40.999Z</time></trkpt><trkpt lat="43.38743898189103" lon="12.976524583718334"><ele>268.71428571428567</ele><time>2026-04-19T12:10:49.999Z</time></trkpt><trkpt lat="43.3874656232849" lon="12.976604048338787"><ele>264.57142857142856</ele><time>2026-04-19T12:10:56.999Z</time></trkpt><trkpt lat="43.38750489392609" lon="12.976678592272153"><ele>260.42857142857144</ele><time>2026-04-19T12:11:02.999Z</time></trkpt><trkpt lat="43.38755328715804" lon="12.976746416881392"><ele>256.28571428571433</ele><time>2026-04-19T12:11:09.999Z</time></trkpt><trkpt lat="43.38755226881959" lon="12.976837817127382"><ele>252.14285714285717</ele><time>2026-04-19T12:11:19.999Z</time></trkpt><trkpt lat="43.38759302027417" lon="12.976909107026259"><ele>248.0</ele><time>2026-04-19T12:11:24.999Z</time></trkpt><trkpt lat="43.38765579058746" lon="12.976938942825022"><ele>248.00000000000003</ele><time>2026-04-19T12:11:29.999Z</time></trkpt><trkpt lat="43.38776512819571" lon="12.976972197744205"><ele>248.0</ele><time>2026-04-19T12:13:07.999Z</time></trkpt><trkpt lat="43.387811681869316" lon="12.977050519398674"><ele>248.0</ele><time>2026-04-19T12:13:19.999Z</time></trkpt><trkpt lat="43.3878409951436" lon="12.977149581362209"><ele>248.0</ele><time>2026-04-19T12:13:28.999Z</time></trkpt><trkpt lat="43.387880113973964" lon="12.97723275089826"><ele>248.00000000000003</ele><time>2026-04-19T12:13:34.998Z</time></trkpt><trkpt lat="43.38789709095879" lon="12.97733372824887"><ele>248.0</ele><time>2026-04-19T12:13:42Z</time></trkpt><trkpt lat="43.38794488331902" lon="12.977403639505521"><ele>248.0</ele><time>2026-04-19T12:13:49Z</time></trkpt><trkpt lat="43.387960600509054" lon="12.977493635864016"><ele>248.00000000000003</ele><time>2026-04-19T12:13:54Z</time></trkpt><trkpt lat="43.38802262409634" lon="12.977524660573938"><ele>248.0</ele><time>2026-04-19T12:14:01Z</time></trkpt><trkpt lat="43.388044200966604" lon="12.977608534820332"><ele>248.0</ele><time>2026-04-19T12:14:09Z</time></trkpt><trkpt lat="43.38809102269253" lon="12.977668256161607"><ele>248.00000000000003</ele><time>2026-04-19T12:14:15Z</time></trkpt><trkpt lat="43.38814591415407" lon="12.977734364064087"><ele>248.0</ele><time>2026-04-19T12:14:23Z</time></trkpt><trkpt lat="43.38819283988037" lon="12.977815727389576"><ele>248.0</ele><time>2026-04-19T12:14:30.999Z</time></trkpt><trkpt lat="43.388202951402" lon="12.977903914331158"><ele>243.16666666666669</ele><time>2026-04-19T12:14:39.999Z</time></trkpt><trkpt lat="43.38826605248849" lon="12.977900599361295"><ele>238.33333333333334</ele><time>2026-04-19T12:14:51.999Z</time></trkpt><trkpt lat="43.38830405484549" lon="12.977992458612503"><ele>233.5</ele><time>2026-04-19T12:15:09.999Z</time></trkpt><trkpt lat="43.38836846724382" lon="12.978055320000859"><ele>228.66666666666669</ele><time>2026-04-19T12:15:17.999Z</time></trkpt><trkpt lat="43.38838650876312" lon="12.97814064145202"><ele>223.83333333333334</ele><time>2026-04-19T12:15:23.999Z</time></trkpt><trkpt lat="43.38842118263936" lon="12.978213878391045"><ele>219.0</ele><time>2026-04-19T12:15:31.999Z</time></trkpt><trkpt lat="43.38852377593852" lon="12.978241751606058"><ele>219.0</ele><time>2026-04-19T12:15:59Z</time></trkpt><trkpt lat="43.38853561705838" lon="12.978347141794668"><ele>219.0</ele><time>2026-04-19T12:16:02Z</time></trkpt><trkpt lat="43.38861065846045" lon="12.978372578568804"><ele>219.0</ele><time>2026-04-19T12:16:23Z</time></trkpt><trkpt lat="43.388656953134806" lon="12.97846065708584"><ele>219.0</ele><time>2026-04-19T12:16:33Z</time></trkpt><trkpt lat="43.388727576337374" lon="12.978453306430215"><ele>219.0</ele><time>2026-04-19T12:16:39.999Z</time></trkpt><trkpt lat="43.388792505738635" lon="12.978449944484087"><ele>219.0</ele><time>2026-04-19T12:16:46.999Z</time></trkpt><trkpt lat="43.388821646936584" lon="12.978536122647318"><ele>219.0</ele><time>2026-04-19T12:16:50.999Z</time></trkpt><trkpt lat="43.38885145417823" lon="12.978624279101627"><ele>216.85714285714286</ele><time>2026-04-19T12:16:59.999Z</time></trkpt><trkpt lat="43.38886180797347" lon="12.97872810009435"><ele>214.7142857142857</ele><time>2026-04-19T12:17:06.999Z</time></trkpt><trkpt lat="43.38886854233225" lon="12.978826483955704"><ele>212.57142857142856</ele><time>2026-04-19T12:17:16.999Z</time></trkpt><trkpt lat="43.38892039846337" lon="12.978772711032718"><ele>210.42857142857144</ele><time>2026-04-19T12:17:43.998Z</time></trkpt><trkpt lat="43.388988573500264" lon="12.978774253655708"><ele>208.28571428571428</ele><time>2026-04-19T12:18:01Z</time></trkpt><trkpt lat="43.38905960478733" lon="12.978714430943166"><ele>206.14285714285714</ele><time>2026-04-19T12:18:10Z</time></trkpt><trkpt lat="43.38912405505865" lon="12.978661608172567"><ele>204.0</ele><time>2026-04-19T12:18:17Z</time></trkpt><trkpt lat="43.38918857930723" lon="12.978627648931173"><ele>204.0</ele><time>2026-04-19T12:18:25Z</time></trkpt><trkpt lat="43.38925100122685" lon="12.978603886503135"><ele>204.0</ele><time>2026-04-19T12:18:34Z</time></trkpt><trkpt lat="43.38929692171302" lon="12.978539862786379"><ele>204.0</ele><time>2026-04-19T12:18:41.999Z</time></trkpt><trkpt lat="43.3893484194288" lon="12.978482509736173"><ele>204.0</ele><time>2026-04-19T12:18:46.999Z</time></trkpt><trkpt lat="43.389395378581185" lon="12.97842372200749"><ele>204.0</ele><time>2026-04-19T12:18:52.999Z</time></trkpt><trkpt lat="43.38944389162504" lon="12.978338702885095"><ele>204.0</ele><time>2026-04-19T12:18:57.999Z</time></trkpt><trkpt lat="43.38950414719209" lon="12.978293725286397"><ele>204.0</ele><time>2026-04-19T12:19:05.999Z</time></trkpt><trkpt lat="43.38955740156368" lon="12.978230426930942"><ele>204.57142857142858</ele><time>2026-04-19T12:19:15.999Z</time></trkpt><trkpt lat="43.38961776166209" lon="12.978195270789296"><ele>205.14285714285717</ele><time>2026-04-19T12:19:20.999Z</time></trkpt><trkpt lat="43.38967076994139" lon="12.978140052833915"><ele>205.71428571428572</ele><time>2026-04-19T12:19:32.999Z</time></trkpt><trkpt lat="43.38973340201741" lon="12.978097305972918"><ele>206.28571428571428</ele><time>2026-04-19T12:19:42.999Z</time></trkpt><trkpt lat="43.38979570521345" lon="12.978072104422429"><ele>206.85714285714286</ele><time>2026-04-19T12:19:49.998Z</time></trkpt><trkpt lat="43.38984459547626" lon="12.978017022530027"><ele>207.42857142857142</ele><time>2026-04-19T12:19:57.998Z</time></trkpt><trkpt lat="43.389902772237896" lon="12.977961590947046"><ele>208.0</ele><time>2026-04-19T12:20:06Z</time></trkpt><trkpt lat="43.38996324397604" lon="12.977901239006187"><ele>208.0</ele><time>2026-04-19T12:20:13Z</time></trkpt><trkpt lat="43.39002084845376" lon="12.977840773767815"><ele>208.0</ele><time>2026-04-19T12:20:18Z</time></trkpt><trkpt lat="43.39007212826437" lon="12.977765172061781"><ele>208.0</ele><time>2026-04-19T12:20:27Z</time></trkpt><trkpt lat="43.390108375001375" lon="12.977683932604222"><ele>208.0</ele><time>2026-04-19T12:20:34Z</time></trkpt><trkpt lat="43.39015185331759" lon="12.977602481586143"><ele>208.0</ele><time>2026-04-19T12:20:41.999Z</time></trkpt><trkpt lat="43.39020121556194" lon="12.977521713690424"><ele>208.0</ele><time>2026-04-19T12:20:50.999Z</time></trkpt><trkpt lat="43.39025070074396" lon="12.977465507820485"><ele>208.0</ele><time>2026-04-19T12:20:55.999Z</time></trkpt><trkpt lat="43.39027993423654" lon="12.977387353895331"><ele>207.7142857142857</ele><time>2026-04-19T12:21:02.999Z</time></trkpt><trkpt lat="43.39032245739528" lon="12.977312029668814"><ele>207.42857142857144</ele><time>2026-04-19T12:21:11.999Z</time></trkpt><trkpt lat="43.390339821692464" lon="12.97722580838328"><ele>207.14285714285714</ele><time>2026-04-19T12:21:19.999Z</time></trkpt><trkpt lat="43.39041688270204" lon="12.977163507212389"><ele>206.85714285714283</ele><time>2026-04-19T12:21:30.999Z</time></trkpt><trkpt lat="43.390462478572" lon="12.977095352849128"><ele>206.57142857142856</ele><time>2026-04-19T12:21:35.999Z</time></trkpt><trkpt lat="43.390480075945135" lon="12.977007163367244"><ele>206.28571428571428</ele><time>2026-04-19T12:21:46.999Z</time></trkpt><trkpt lat="43.39052894546869" lon="12.976938201311661"><ele>206.0</ele><time>2026-04-19T12:21:55.998Z</time></trkpt><trkpt lat="43.39057136809024" lon="12.976856603433577"><ele>205.99999999999997</ele><time>2026-04-19T12:22:02.998Z</time></trkpt><trkpt lat="43.390611094149484" lon="12.976781890147874"><ele>206.0</ele><time>2026-04-19T12:22:12Z</time></trkpt><trkpt lat="43.39065908458772" lon="12.976725647820862"><ele>206.0</ele><time>2026-04-19T12:22:19Z</time></trkpt><trkpt lat="43.39068811448686" lon="12.97664258674471"><ele>206.0</ele><time>2026-04-19T12:22:25Z</time></trkpt><trkpt lat="43.39070756809654" lon="12.97655678638167"><ele>206.0</ele><time>2026-04-19T12:22:32Z</time></trkpt><trkpt lat="43.39072489969956" lon="12.976473476819717"><ele>205.99999999999997</ele><time>2026-04-19T12:22:40Z</time></trkpt><trkpt lat="43.39078946397867" lon="12.976424580380554"><ele>206.0</ele><time>2026-04-19T12:22:45.999Z</time></trkpt><trkpt lat="43.39082787892808" lon="12.976347925153771"><ele>209.1428571428571</ele><time>2026-04-19T12:22:52.999Z</time></trkpt><trkpt lat="43.390882598250585" lon="12.976280476182499"><ele>212.28571428571428</ele><time>2026-04-19T12:23:01.999Z</time></trkpt><trkpt lat="43.390946382907565" lon="12.976213786879812"><ele>215.42857142857142</ele><time>2026-04-19T12:23:10.999Z</time></trkpt><trkpt lat="43.39101754833255" lon="12.976177770024336"><ele>218.57142857142856</ele><time>2026-04-19T12:23:15.999Z</time></trkpt><trkpt lat="43.39108203191266" lon="12.976141105356813"><ele>221.7142857142857</ele><time>2026-04-19T12:23:21.999Z</time></trkpt><trkpt lat="43.39113165205615" lon="12.97607916060277"><ele>224.85714285714283</ele><time>2026-04-19T12:23:29.999Z</time></trkpt><trkpt lat="43.39119521753073" lon="12.976035165819486"><ele>228.0</ele><time>2026-04-19T12:23:35.999Z</time></trkpt><trkpt lat="43.39125739548185" lon="12.97599180842626"><ele>228.0</ele><time>2026-04-19T12:23:41.999Z</time></trkpt><trkpt lat="43.391319877072874" lon="12.975963953499406"><ele>227.99999999999997</ele><time>2026-04-19T12:23:49.999Z</time></trkpt><trkpt lat="43.39138420041148" lon="12.975963859025919"><ele>228.0</ele><time>2026-04-19T12:23:56.999Z</time></trkpt><trkpt lat="43.391447937477146" lon="12.97596759844171"><ele>228.0</ele><time>2026-04-19T12:24:03.999Z</time></trkpt><trkpt lat="43.391512440076035" lon="12.975963269832668"><ele>227.99999999999997</ele><time>2026-04-19T12:24:07.998Z</time></trkpt><trkpt lat="43.39158214717365" lon="12.975959918403765"><ele>228.0</ele><time>2026-04-19T12:24:15Z</time></trkpt><trkpt lat="43.391652964131744" lon="12.975959129109148"><ele>228.0</ele><time>2026-04-19T12:24:22Z</time></trkpt><trkpt lat="43.391720567272" lon="12.975961169719227"><ele>224.85714285714283</ele><time>2026-04-19T12:24:27Z</time></trkpt><trkpt lat="43.39179081572735" lon="12.975968257696278"><ele>221.7142857142857</ele><time>2026-04-19T12:24:35Z</time></trkpt><trkpt lat="43.39185682619033" lon="12.975965467307178"><ele>218.57142857142856</ele><time>2026-04-19T12:24:40Z</time></trkpt><trkpt lat="43.391926724931146" lon="12.975969097466654"><ele>215.42857142857142</ele><time>2026-04-19T12:24:46Z</time></trkpt><trkpt lat="43.39198994987518" lon="12.975981519608997"><ele>212.28571428571428</ele><time>2026-04-19T12:24:53Z</time></trkpt><trkpt lat="43.392067513163774" lon="12.975988647452052"><ele>209.1428571428571</ele><time>2026-04-19T12:25:00.999Z</time></trkpt><trkpt lat="43.39213443406621" lon="12.975983754987531"><ele>206.0</ele><time>2026-04-19T12:25:06.999Z</time></trkpt><trkpt lat="43.39220476257679" lon="12.975970745432498"><ele>205.57142857142856</ele><time>2026-04-19T12:25:13.999Z</time></trkpt><trkpt lat="43.392271164567575" lon="12.975977854561389"><ele>205.14285714285714</ele><time>2026-04-19T12:25:21.999Z</time></trkpt><trkpt lat="43.392341735468584" lon="12.97596467792215"><ele>204.71428571428572</ele><time>2026-04-19T12:25:27.999Z</time></trkpt><trkpt lat="43.3924179205792" lon="12.975976727815677"><ele>204.28571428571428</ele><time>2026-04-19T12:25:36.999Z</time></trkpt><trkpt lat="43.392478109235746" lon="12.97595049129607"><ele>203.85714285714286</ele><time>2026-04-19T12:25:41.999Z</time></trkpt><trkpt lat="43.39253989982535" lon="12.975917895560544"><ele>203.42857142857142</ele><time>2026-04-19T12:25:46.999Z</time></trkpt><trkpt lat="43.39258514840309" lon="12.975848873242679"><ele>203.0</ele><time>2026-04-19T12:25:53.999Z</time></trkpt><trkpt lat="43.39264246557677" lon="12.975802418526028"><ele>203.0</ele><time>2026-04-19T12:26:00.999Z</time></trkpt><trkpt lat="43.39270779992336" lon="12.9757737403681"><ele>203.0</ele><time>2026-04-19T12:26:05.999Z</time></trkpt><trkpt lat="43.39277718485033" lon="12.975772730024442"><ele>203.0</ele><time>2026-04-19T12:26:13.999Z</time></trkpt><trkpt lat="43.392823066068665" lon="12.975832934642286"><ele>203.0</ele><time>2026-04-19T12:26:21Z</time></trkpt><trkpt lat="43.39286471297521" lon="12.975925923910811"><ele>203.0</ele><time>2026-04-19T12:26:29Z</time></trkpt><trkpt lat="43.392929379431564" lon="12.975972182820628"><ele>203.0</ele><time>2026-04-19T12:26:35Z</time></trkpt><trkpt lat="43.392996964124876" lon="12.975995229348257"><ele>203.0</ele><time>2026-04-19T12:26:40Z</time></trkpt><trkpt lat="43.39307321218677" lon="12.976002815154132"><ele>203.42857142857142</ele><time>2026-04-19T12:26:47Z</time></trkpt><trkpt lat="43.39313873804276" lon="12.976003484539165"><ele>203.85714285714286</ele><time>2026-04-19T12:26:53Z</time></trkpt><trkpt lat="43.39321871084856" lon="12.976016771718875"><ele>204.28571428571428</ele><time>2026-04-19T12:27:00Z</time></trkpt><trkpt lat="43.39327951073058" lon="12.975993393255525"><ele>204.71428571428572</ele><time>2026-04-19T12:27:08Z</time></trkpt><trkpt lat="43.39334933172995" lon="12.97601174202232"><ele>205.14285714285714</ele><time>2026-04-19T12:27:14.999Z</time></trkpt><trkpt lat="43.39341163889491" lon="12.975994694269747"><ele>205.57142857142856</ele><time>2026-04-19T12:27:20.999Z</time></trkpt><trkpt lat="43.393483348690026" lon="12.975988371992845"><ele>206.0</ele><time>2026-04-19T12:27:27.999Z</time></trkpt><trkpt lat="43.3935510371837" lon="12.975974062230565"><ele>206.00000000000003</ele><time>2026-04-19T12:27:33.999Z</time></trkpt><trkpt lat="43.39363669505864" lon="12.97596112679952"><ele>206.0</ele><time>2026-04-19T12:27:41.999Z</time></trkpt><trkpt lat="43.39370028713531" lon="12.975905798608048"><ele>206.0</ele><time>2026-04-19T12:27:47.999Z</time></trkpt><trkpt lat="43.393785165115695" lon="12.975865396673234"><ele>206.0</ele><time>2026-04-19T12:27:55.999Z</time></trkpt><trkpt lat="43.393859155417594" lon="12.97580316816254"><ele>206.00000000000003</ele><time>2026-04-19T12:28:03.999Z</time></trkpt><trkpt lat="43.39392039862139" lon="12.97577238446366"><ele>206.0</ele><time>2026-04-19T12:28:11.999Z</time></trkpt><trkpt lat="43.39398938431629" lon="12.975728662638963"><ele>206.7142857142857</ele><time>2026-04-19T12:28:17.999Z</time></trkpt><trkpt lat="43.39403154769106" lon="12.975662925311811"><ele>207.42857142857142</ele><time>2026-04-19T12:28:24Z</time></trkpt><trkpt lat="43.39407332678991" lon="12.97559446750991"><ele>208.14285714285714</ele><time>2026-04-19T12:28:30Z</time></trkpt><trkpt lat="43.39409569621423" lon="12.975499502689265"><ele>208.85714285714283</ele><time>2026-04-19T12:28:37Z</time></trkpt><trkpt lat="43.39410805554986" lon="12.975400987144411"><ele>209.57142857142858</ele><time>2026-04-19T12:28:47Z</time></trkpt><trkpt lat="43.39414123109982" lon="12.97532170291157"><ele>210.28571428571428</ele><time>2026-04-19T12:28:53Z</time></trkpt><trkpt lat="43.394174075868904" lon="12.975241171486568"><ele>211.0</ele><time>2026-04-19T12:29:00Z</time></trkpt><trkpt lat="43.39423646595103" lon="12.975166582379408"><ele>211.0</ele><time>2026-04-19T12:29:06Z</time></trkpt><trkpt lat="43.39429487090499" lon="12.97511167609672"><ele>211.0</ele><time>2026-04-19T12:29:12Z</time></trkpt><trkpt lat="43.394337984145906" lon="12.975034061544136"><ele>211.0</ele><time>2026-04-19T12:29:17.999Z</time></trkpt><trkpt lat="43.39435475725848" lon="12.97494587992684"><ele>211.0</ele><time>2026-04-19T12:29:26.999Z</time></trkpt><trkpt lat="43.394440624248986" lon="12.974877963507607"><ele>211.0</ele><time>2026-04-19T12:29:35.999Z</time></trkpt><trkpt lat="43.39448534821678" lon="12.974802715401589"><ele>211.0</ele><time>2026-04-19T12:29:47.999Z</time></trkpt><trkpt lat="43.39454527453466" lon="12.974756243418389"><ele>211.0</ele><time>2026-04-19T12:29:57.999Z</time></trkpt><trkpt lat="43.39458842034177" lon="12.974672474529937"><ele>210.57142857142858</ele><time>2026-04-19T12:30:02.999Z</time></trkpt><trkpt lat="43.39464916161774" lon="12.974649077590431"><ele>210.14285714285717</ele><time>2026-04-19T12:30:09.999Z</time></trkpt><trkpt lat="43.39470199227589" lon="12.974601576800357"><ele>209.71428571428572</ele><time>2026-04-19T12:30:15.999Z</time></trkpt><trkpt lat="43.39476279382761" lon="12.974573908677248"><ele>209.28571428571428</ele><time>2026-04-19T12:30:20.999Z</time></trkpt><trkpt lat="43.39482497869234" lon="12.974545348684032"><ele>208.85714285714286</ele><time>2026-04-19T12:30:25.999Z</time></trkpt><trkpt lat="43.39489259810187" lon="12.97455064802557"><ele>208.42857142857142</ele><time>2026-04-19T12:30:31Z</time></trkpt><trkpt lat="43.394965657043244" lon="12.974527622856062"><ele>208.0</ele><time>2026-04-19T12:30:40Z</time></trkpt><trkpt lat="43.395032706019386" lon="12.974524879402697"><ele>208.0</ele><time>2026-04-19T12:30:48Z</time></trkpt><trkpt lat="43.395100188444914" lon="12.97450617611341"><ele>208.0</ele><time>2026-04-19T12:30:53Z</time></trkpt><trkpt lat="43.395169424221145" lon="12.97449272499638"><ele>208.0</ele><time>2026-04-19T12:31:00Z</time></trkpt><trkpt lat="43.39523516191125" lon="12.974472140316562"><ele>208.0</ele><time>2026-04-19T12:31:05Z</time></trkpt><trkpt lat="43.39530147572511" lon="12.9744544047976"><ele>208.0</ele><time>2026-04-19T12:31:10Z</time></trkpt><trkpt lat="43.39536860193632" lon="12.974449129876223"><ele>208.0</ele><time>2026-04-19T12:31:15Z</time></trkpt><trkpt lat="43.39543881854411" lon="12.974444872030952"><ele>208.0</ele><time>2026-04-19T12:31:21.999Z</time></trkpt><trkpt lat="43.395502170483375" lon="12.974415608537177"><ele>206.85714285714286</ele><time>2026-04-19T12:31:27.999Z</time></trkpt><trkpt lat="43.39556940883991" lon="12.974424539173874"><ele>205.71428571428572</ele><time>2026-04-19T12:31:33.999Z</time></trkpt><trkpt lat="43.395637933726796" lon="12.974439443971262"><ele>204.57142857142858</ele><time>2026-04-19T12:31:39.999Z</time></trkpt><trkpt lat="43.39569966613652" lon="12.974460218770192"><ele>203.42857142857144</ele><time>2026-04-19T12:31:44.999Z</time></trkpt><trkpt lat="43.39577699886761" lon="12.974467743166576"><ele>202.28571428571428</ele><time>2026-04-19T12:31:51.999Z</time></trkpt><trkpt lat="43.3958485063985" lon="12.974477128192094"><ele>201.14285714285717</ele><time>2026-04-19T12:31:58.999Z</time></trkpt><trkpt lat="43.39591970075064" lon="12.974494962465652"><ele>200.0</ele><time>2026-04-19T12:32:04.999Z</time></trkpt><trkpt lat="43.39596359491273" lon="12.974569007154507"><ele>200.00000000000003</ele><time>2026-04-19T12:32:10.999Z</time></trkpt><trkpt lat="43.39599406516197" lon="12.97464927495259"><ele>200.0</ele><time>2026-04-19T12:32:17.999Z</time></trkpt><trkpt lat="43.396034547265785" lon="12.974721978508862"><ele>200.0</ele><time>2026-04-19T12:32:24.999Z</time></trkpt><trkpt lat="43.39610002579663" lon="12.974763734873308"><ele>200.0</ele><time>2026-04-19T12:32:31.999Z</time></trkpt><trkpt lat="43.396169851225494" lon="12.974784556963376"><ele>200.0</ele><time>2026-04-19T12:32:39Z</time></trkpt><trkpt lat="43.39624021191666" lon="12.974795898359602"><ele>200.00000000000003</ele><time>2026-04-19T12:32:46Z</time></trkpt><trkpt lat="43.396316537917535" lon="12.974785996512916"><ele>200.0</ele><time>2026-04-19T12:32:54Z</time></trkpt><trkpt lat="43.39638053627774" lon="12.974793900207809"><ele>199.57142857142858</ele><time>2026-04-19T12:33:02Z</time></trkpt><trkpt lat="43.39644460899163" lon="12.974799947954047"><ele>199.14285714285714</ele><time>2026-04-19T12:33:09Z</time></trkpt><trkpt lat="43.396496796451956" lon="12.974748819895447"><ele>198.71428571428572</ele><time>2026-04-19T12:33:18Z</time></trkpt><trkpt lat="43.39656620970256" lon="12.97469509451173"><ele>198.28571428571428</ele><time>2026-04-19T12:33:22Z</time></trkpt><trkpt lat="43.39663375064873" lon="12.974629534703984"><ele>197.85714285714286</ele><time>2026-04-19T12:33:28Z</time></trkpt><trkpt lat="43.3966430699644" lon="12.97454338178255"><ele>197.42857142857144</ele><time>2026-04-19T12:33:38.999Z</time></trkpt><trkpt lat="43.39668480445359" lon="12.97447276675583"><ele>197.0</ele><time>2026-04-19T12:33:45.999Z</time></trkpt><trkpt lat="43.39669436157861" lon="12.974386771814505"><ele>197.0</ele><time>2026-04-19T12:33:51.999Z</time></trkpt><trkpt lat="43.39673434291414" lon="12.97429114941598"><ele>197.0</ele><time>2026-04-19T12:33:57.999Z</time></trkpt><trkpt lat="43.39676564390212" lon="12.974202011553244"><ele>197.0</ele><time>2026-04-19T12:34:04.999Z</time></trkpt><trkpt lat="43.39678836413934" lon="12.974116026403566"><ele>197.0</ele><time>2026-04-19T12:34:10.999Z</time></trkpt><trkpt lat="43.39684852489534" lon="12.974063222653697"><ele>197.0</ele><time>2026-04-19T12:34:16.999Z</time></trkpt><trkpt lat="43.396910013150574" lon="12.974041440543331"><ele>197.0</ele><time>2026-04-19T12:34:20.999Z</time></trkpt><trkpt lat="43.396975581571425" lon="12.974011097898968"><ele>197.0</ele><time>2026-04-19T12:34:26.999Z</time></trkpt><trkpt lat="43.397006553548245" lon="12.973932335983754"><ele>197.57142857142858</ele><time>2026-04-19T12:34:35.999Z</time></trkpt><trkpt lat="43.39706572780448" lon="12.973895571165304"><ele>198.14285714285717</ele><time>2026-04-19T12:34:42Z</time></trkpt><trkpt lat="43.397125259329336" lon="12.973851362613676"><ele>198.71428571428572</ele><time>2026-04-19T12:34:49Z</time></trkpt><trkpt lat="43.39718962093536" lon="12.973779428913584"><ele>199.28571428571428</ele><time>2026-04-19T12:34:55Z</time></trkpt><trkpt lat="43.39724153346977" lon="12.973724029226252"><ele>199.85714285714286</ele><time>2026-04-19T12:35:02Z</time></trkpt><trkpt lat="43.39728237493116" lon="12.973656662471143"><ele>200.42857142857142</ele><time>2026-04-19T12:35:09Z</time></trkpt><trkpt lat="43.39735526415031" lon="12.97359962812117"><ele>201.0</ele><time>2026-04-19T12:35:16Z</time></trkpt><trkpt lat="43.39741182085877" lon="12.973553093995623"><ele>201.0</ele><time>2026-04-19T12:35:21Z</time></trkpt><trkpt lat="43.39747276074728" lon="12.973500600388588"><ele>201.0</ele><time>2026-04-19T12:35:26Z</time></trkpt><trkpt lat="43.39752633586071" lon="12.97345118987767"><ele>201.0</ele><time>2026-04-19T12:35:35Z</time></trkpt><trkpt lat="43.39758187049749" lon="12.973408771600974"><ele>201.0</ele><time>2026-04-19T12:35:40.999Z</time></trkpt><trkpt lat="43.39761470604311" lon="12.973331453264754"><ele>201.0</ele><time>2026-04-19T12:35:47.999Z</time></trkpt><trkpt lat="43.397674863816114" lon="12.973287012877742"><ele>201.0</ele><time>2026-04-19T12:35:52.999Z</time></trkpt><trkpt lat="43.397763672745015" lon="12.973248984541279"><ele>201.0</ele><time>2026-04-19T12:35:56.999Z</time></trkpt><trkpt lat="43.397816384171996" lon="12.973190481848242"><ele>201.14285714285714</ele><time>2026-04-19T12:36:06.999Z</time></trkpt><trkpt lat="43.39788498256949" lon="12.973145963847353"><ele>201.2857142857143</ele><time>2026-04-19T12:36:12.999Z</time></trkpt><trkpt lat="43.39795769423997" lon="12.973098325463956"><ele>201.42857142857144</ele><time>2026-04-19T12:36:17.999Z</time></trkpt><trkpt lat="43.39801878854916" lon="12.973063999445476"><ele>201.57142857142856</ele><time>2026-04-19T12:36:23.999Z</time></trkpt><trkpt lat="43.398081576903465" lon="12.973014157950058"><ele>201.71428571428572</ele><time>2026-04-19T12:36:34.999Z</time></trkpt><trkpt lat="43.39814313920253" lon="12.972983773673503"><ele>201.85714285714286</ele><time>2026-04-19T12:36:39.999Z</time></trkpt><trkpt lat="43.398210712243944" lon="12.972958859094765"><ele>202.0</ele><time>2026-04-19T12:36:44.999Z</time></trkpt><trkpt lat="43.398281297241375" lon="12.97293673841974"><ele>202.0</ele><time>2026-04-19T12:36:52Z</time></trkpt><trkpt lat="43.39836127163644" lon="12.97292585895641"><ele>202.0</ele><time>2026-04-19T12:37:00Z</time></trkpt><trkpt lat="43.39842674811112" lon="12.972897382080214"><ele>202.0</ele><time>2026-04-19T12:37:05Z</time></trkpt><trkpt lat="43.39849895736951" lon="12.972875419286718"><ele>202.0</ele><time>2026-04-19T12:37:12Z</time></trkpt><trkpt lat="43.398566539324634" lon="12.972874225297772"><ele>202.0</ele><time>2026-04-19T12:37:18Z</time></trkpt><trkpt lat="43.39863381136258" lon="12.972866076618907"><ele>202.0</ele><time>2026-04-19T12:37:24Z</time></trkpt><trkpt lat="43.39869365308671" lon="12.972834129819415"><ele>202.0</ele><time>2026-04-19T12:37:30Z</time></trkpt><trkpt lat="43.39876451852037" lon="12.972818645543908"><ele>201.85714285714286</ele><time>2026-04-19T12:37:37Z</time></trkpt><trkpt lat="43.398837320152914" lon="12.972810128153037"><ele>201.71428571428572</ele><time>2026-04-19T12:37:42.999Z</time></trkpt><trkpt lat="43.398905529445436" lon="12.972812572147397"><ele>201.57142857142856</ele><time>2026-04-19T12:37:49.999Z</time></trkpt><trkpt lat="43.39897919506383" lon="12.972792802988911"><ele>201.42857142857144</ele><time>2026-04-19T12:37:56.999Z</time></trkpt><trkpt lat="43.39904570128134" lon="12.972788881760389"><ele>201.2857142857143</ele><time>2026-04-19T12:38:02.999Z</time></trkpt><trkpt lat="43.399121300009185" lon="12.972784176222325"><ele>201.14285714285714</ele><time>2026-04-19T12:38:09.999Z</time></trkpt><trkpt lat="43.399184679220035" lon="12.972782692375217"><ele>201.0</ele><time>2026-04-19T12:38:14.999Z</time></trkpt><trkpt lat="43.399252036679215" lon="12.972759105749283"><ele>201.0</ele><time>2026-04-19T12:38:20.999Z</time></trkpt><trkpt lat="43.39931700299203" lon="12.972760095663885"><ele>201.0</ele><time>2026-04-19T12:38:27.999Z</time></trkpt><trkpt lat="43.39938007075487" lon="12.972732106570927"><ele>201.0</ele><time>2026-04-19T12:38:32.999Z</time></trkpt><trkpt lat="43.39944721028899" lon="12.972728530478213"><ele>201.0</ele><time>2026-04-19T12:38:38.999Z</time></trkpt><trkpt lat="43.39951218057218" lon="12.97273589199486"><ele>201.0</ele><time>2026-04-19T12:38:52.999Z</time></trkpt><trkpt lat="43.399589313913" lon="12.972739124924315"><ele>201.0</ele><time>2026-04-19T12:38:59Z</time></trkpt><trkpt lat="43.399658444680334" lon="12.972757317620351"><ele>201.0</ele><time>2026-04-19T12:39:05Z</time></trkpt><trkpt lat="43.39972042190027" lon="12.972774920760491"><ele>200.7142857142857</ele><time>2026-04-19T12:39:09Z</time></trkpt><trkpt lat="43.39979742602269" lon="12.972763431550211"><ele>200.42857142857144</ele><time>2026-04-19T12:39:15Z</time></trkpt><trkpt lat="43.39986663207699" lon="12.97278561328877"><ele>200.14285714285714</ele><time>2026-04-19T12:39:21Z</time></trkpt><trkpt lat="43.39994394061735" lon="12.972796955828029"><ele>199.85714285714283</ele><time>2026-04-19T12:39:28Z</time></trkpt><trkpt lat="43.40001393247715" lon="12.972802810464527"><ele>199.57142857142856</ele><time>2026-04-19T12:39:34Z</time></trkpt><trkpt lat="43.40008313814363" lon="12.972802500396215"><ele>199.28571428571428</ele><time>2026-04-19T12:39:39Z</time></trkpt><trkpt lat="43.400153347169564" lon="12.972823676252405"><ele>199.0</ele><time>2026-04-19T12:39:46.999Z</time></trkpt><trkpt lat="43.40022225928319" lon="12.972816708153173"><ele>198.99999999999997</ele><time>2026-04-19T12:39:51.999Z</time></trkpt><trkpt lat="43.40029027497403" lon="12.97280135631798"><ele>199.0</ele><time>2026-04-19T12:39:58.999Z</time></trkpt><trkpt lat="43.400353988251474" lon="12.97277077174022"><ele>199.0</ele><time>2026-04-19T12:40:04.999Z</time></trkpt><trkpt lat="43.40041651072955" lon="12.972730005798157"><ele>199.0</ele><time>2026-04-19T12:40:09.999Z</time></trkpt><trkpt lat="43.4004840522135" lon="12.972715054921217"><ele>199.0</ele><time>2026-04-19T12:40:14.999Z</time></trkpt><trkpt lat="43.400544239030964" lon="12.972685676128584"><ele>198.99999999999997</ele><time>2026-04-19T12:40:20.999Z</time></trkpt><trkpt lat="43.40060492001084" lon="12.972658273554572"><ele>199.0</ele><time>2026-04-19T12:40:25.999Z</time></trkpt><trkpt lat="43.40067025368607" lon="12.97264256326692"><ele>198.99999999999997</ele><time>2026-04-19T12:40:30.999Z</time></trkpt><trkpt lat="43.4007348560554" lon="12.97259462001336"><ele>199.0</ele><time>2026-04-19T12:40:37.999Z</time></trkpt><trkpt lat="43.400797435179726" lon="12.972567068151749"><ele>199.0</ele><time>2026-04-19T12:40:43.999Z</time></trkpt><trkpt lat="43.40085866808828" lon="12.972536172620556"><ele>199.0</ele><time>2026-04-19T12:40:49.999Z</time></trkpt><trkpt lat="43.40091196190092" lon="12.972470540445759"><ele>199.0</ele><time>2026-04-19T12:40:56.999Z</time></trkpt><trkpt lat="43.40097511776103" lon="12.972420232088822"><ele>198.99999999999997</ele><time>2026-04-19T12:41:03Z</time></trkpt><trkpt lat="43.40102677356123" lon="12.97236022202766"><ele>199.0</ele><time>2026-04-19T12:41:09Z</time></trkpt><trkpt lat="43.40106546048279" lon="12.972283669226147"><ele>200.14285714285714</ele><time>2026-04-19T12:41:15Z</time></trkpt><trkpt lat="43.40109956431682" lon="12.972209253258642"><ele>201.28571428571428</ele><time>2026-04-19T12:41:21Z</time></trkpt><trkpt lat="43.401109033466426" lon="12.97211221179039"><ele>202.42857142857144</ele><time>2026-04-19T12:41:27Z</time></trkpt><trkpt lat="43.40113644845567" lon="12.972011455182052"><ele>203.57142857142856</ele><time>2026-04-19T12:41:34Z</time></trkpt><trkpt lat="43.401153766370996" lon="12.971926721560934"><ele>204.71428571428572</ele><time>2026-04-19T12:41:39Z</time></trkpt><trkpt lat="43.401156791877" lon="12.97183067383059"><ele>205.85714285714286</ele><time>2026-04-19T12:41:46Z</time></trkpt><trkpt lat="43.40118354031388" lon="12.971748393137348"><ele>207.0</ele><time>2026-04-19T12:41:51.999Z</time></trkpt><trkpt lat="43.40123878258494" lon="12.971678708143411"><ele>205.85714285714286</ele><time>2026-04-19T12:41:56.999Z</time></trkpt><trkpt lat="43.40125550376574" lon="12.97159040552631"><ele>204.71428571428572</ele><time>2026-04-19T12:42:03.999Z</time></trkpt><trkpt lat="43.40127555273394" lon="12.971497482422324"><ele>203.57142857142856</ele><time>2026-04-19T12:42:09.999Z</time></trkpt><trkpt lat="43.40129260093152" lon="12.971399168356655"><ele>202.42857142857144</ele><time>2026-04-19T12:42:16.999Z</time></trkpt><trkpt lat="43.40135689376332" lon="12.971324271491405"><ele>201.28571428571428</ele><time>2026-04-19T12:42:22.999Z</time></trkpt><trkpt lat="43.401394545612334" lon="12.971251328460479"><ele>200.14285714285714</ele><time>2026-04-19T12:42:28.999Z</time></trkpt><trkpt lat="43.40141100374459" lon="12.971167342188533"><ele>199.0</ele><time>2026-04-19T12:42:35.999Z</time></trkpt><trkpt lat="43.40146335754021" lon="12.97111662794137"><ele>198.99999999999997</ele><time>2026-04-19T12:42:41.999Z</time></trkpt><trkpt lat="43.401487423713796" lon="12.971022231334778"><ele>199.0</ele><time>2026-04-19T12:42:46.999Z</time></trkpt><trkpt lat="43.40153666248541" lon="12.970941351797336"><ele>199.0</ele><time>2026-04-19T12:42:54.999Z</time></trkpt><trkpt lat="43.40156808664048" lon="12.970848989613811"><ele>199.0</ele><time>2026-04-19T12:43:02.998Z</time></trkpt><trkpt lat="43.40160830775974" lon="12.970763903103567"><ele>199.0</ele><time>2026-04-19T12:43:10Z</time></trkpt><trkpt lat="43.40165786147563" lon="12.97068141829114"><ele>198.99999999999997</ele><time>2026-04-19T12:43:16Z</time></trkpt><trkpt lat="43.40167204563655" lon="12.970589237850385"><ele>199.0</ele><time>2026-04-19T12:43:22Z</time></trkpt><trkpt lat="43.40173863665714" lon="12.970574360716059"><ele>200.14285714285714</ele><time>2026-04-19T12:43:29Z</time></trkpt><trkpt lat="43.401781710354705" lon="12.970503658210687"><ele>201.28571428571428</ele><time>2026-04-19T12:43:34Z</time></trkpt><trkpt lat="43.401800732905215" lon="12.970419452148619"><ele>202.42857142857144</ele><time>2026-04-19T12:43:40Z</time></trkpt><trkpt lat="43.40182693492663" lon="12.970333030897441"><ele>203.57142857142856</ele><time>2026-04-19T12:43:47Z</time></trkpt><trkpt lat="43.40188613843206" lon="12.970286150507812"><ele>204.71428571428572</ele><time>2026-04-19T12:43:51Z</time></trkpt><trkpt lat="43.40192211759148" lon="12.970199332669383"><ele>205.85714285714286</ele><time>2026-04-19T12:43:58.999Z</time></trkpt><trkpt lat="43.40197205727541" lon="12.970124206547716"><ele>207.0</ele><time>2026-04-19T12:44:05.999Z</time></trkpt><trkpt lat="43.40201348185145" lon="12.970044096907218"><ele>206.42857142857144</ele><time>2026-04-19T12:44:15.999Z</time></trkpt><trkpt lat="43.40205499497898" lon="12.969962453183404"><ele>205.85714285714286</ele><time>2026-04-19T12:44:21.999Z</time></trkpt><trkpt lat="43.402080826534714" lon="12.969877525092906"><ele>205.28571428571428</ele><time>2026-04-19T12:44:26.999Z</time></trkpt><trkpt lat="43.40214409236336" lon="12.969811792597923"><ele>204.71428571428572</ele><time>2026-04-19T12:44:31.999Z</time></trkpt><trkpt lat="43.40217148471099" lon="12.96973350186088"><ele>204.14285714285714</ele><time>2026-04-19T12:44:40.999Z</time></trkpt><trkpt lat="43.40220163979959" lon="12.969648882531377"><ele>203.57142857142858</ele><time>2026-04-19T12:44:47.999Z</time></trkpt><trkpt lat="43.40221617677548" lon="12.96954463445059"><ele>203.0</ele><time>2026-04-19T12:44:53.999Z</time></trkpt><trkpt lat="43.402223484450026" lon="12.969444537275155"><ele>203.0</ele><time>2026-04-19T12:44:57.999Z</time></trkpt><trkpt lat="43.40218306821221" lon="12.969364196841445"><ele>203.0</ele><time>2026-04-19T12:45:04.999Z</time></trkpt><trkpt lat="43.402189220541885" lon="12.969270666318476"><ele>203.0</ele><time>2026-04-19T12:45:14Z</time></trkpt><trkpt lat="43.40219739651275" lon="12.969172763777472"><ele>203.0</ele><time>2026-04-19T12:45:25Z</time></trkpt><trkpt lat="43.40222674907136" lon="12.969095974799105"><ele>203.0</ele><time>2026-04-19T12:45:33Z</time></trkpt><trkpt lat="43.40229823034748" lon="12.96906336954524"><ele>203.0</ele><time>2026-04-19T12:45:57Z</time></trkpt><trkpt lat="43.40221263088669" lon="12.969078301979852"><ele>203.0</ele><time>2026-04-19T12:50:19.999Z</time></trkpt><trkpt lat="43.40225853699991" lon="12.96898186564405"><ele>207.0</ele><time>2026-04-19T12:50:59.999Z</time></trkpt><trkpt lat="43.402261651819195" lon="12.968887624210339"><ele>207.0</ele><time>2026-04-19T12:51:05.999Z</time></trkpt><trkpt lat="43.402271224614815" lon="12.968797201801497"><ele>207.0</ele><time>2026-04-19T12:51:10.999Z</time></trkpt><trkpt lat="43.40224802525206" lon="12.968886505439905"><ele>207.0</ele><time>2026-04-19T12:52:04Z</time></trkpt><trkpt lat="43.40224188341854" lon="12.968984200761998"><ele>207.0</ele><time>2026-04-19T12:52:12Z</time></trkpt><trkpt lat="43.40222232920875" lon="12.969081671827368"><ele>207.0</ele><time>2026-04-19T12:52:18Z</time></trkpt></trkseg></trk></gpx>